<?xml version="1.0" encoding="UTF-8" standalone="no" ?>
<gpx xmlns="http://www.topografix.com/GPX/1/1" xmlns:xsi="http://www.w3.org/2001/XMLSchema-instance" xsi:schemaLocation="http://www.topografix.com/GPX/1/1 http://www.topografix.com/GPX/1/1/gpx.xsd" version="1.1" creator="VisuGPX - https://www.visugpx.com">
  <metadata>
    <name>Gigondas : Pas de l'Aigle - Chateau Neuf Redortier - Cassan - Col d'Alsau - Mon Rêve - Dardel</name>
  </metadata>
  <trk>
    <name><![CDATA[Gigondas Pas de l'Aigle du 27/02/2021]]></name>
    <extensions>
      <line xmlns="http://www.topografix.com/GPX/gpx_style/0/2">
        <color>0000FF</color>
        <width>4</width>
      </line>
    </extensions>
    <trkseg>
      <trkpt lat="44.1632" lon="5.0041">
        <ele>248</ele>
        <time>2021-02-26T10:22:39Z</time>
      </trkpt>
      <trkpt lat="44.16342" lon="5.00427">
        <ele>250</ele>
        <time>2021-02-26T10:22:46Z</time>
      </trkpt>
      <trkpt lat="44.16377" lon="5.00444">
        <ele>250</ele>
        <time>2021-02-26T10:23:04Z</time>
      </trkpt>
      <trkpt lat="44.16386" lon="5.00454">
        <ele>251</ele>
        <time>2021-02-26T10:23:10Z</time>
      </trkpt>
      <trkpt lat="44.16411" lon="5.00495">
        <ele>252</ele>
        <time>2021-02-26T10:23:29Z</time>
      </trkpt>
      <trkpt lat="44.16417" lon="5.00527">
        <ele>253</ele>
        <time>2021-02-26T10:23:42Z</time>
      </trkpt>
      <trkpt lat="44.16413" lon="5.00534">
        <ele>254</ele>
        <time>2021-02-26T10:23:46Z</time>
      </trkpt>
      <trkpt lat="44.16412" lon="5.00539">
        <ele>254</ele>
        <time>2021-02-26T10:23:48Z</time>
      </trkpt>
      <trkpt lat="44.16414" lon="5.00544">
        <ele>254</ele>
        <time>2021-02-26T10:23:50Z</time>
      </trkpt>
      <trkpt lat="44.16428" lon="5.00565">
        <ele>253</ele>
        <time>2021-02-26T10:24:00Z</time>
      </trkpt>
      <trkpt lat="44.16448" lon="5.00626">
        <ele>254</ele>
        <time>2021-02-26T10:24:24Z</time>
      </trkpt>
      <trkpt lat="44.16463" lon="5.00654">
        <ele>254</ele>
        <time>2021-02-26T10:24:36Z</time>
      </trkpt>
      <trkpt lat="44.16464" lon="5.00684">
        <ele>258</ele>
        <time>2021-02-26T10:24:47Z</time>
      </trkpt>
      <trkpt lat="44.16471" lon="5.00699">
        <ele>259</ele>
        <time>2021-02-26T10:24:58Z</time>
      </trkpt>
      <trkpt lat="44.16479" lon="5.00713">
        <ele>260</ele>
        <time>2021-02-26T10:25:00Z</time>
      </trkpt>
      <trkpt lat="44.16485" lon="5.0072">
        <ele>260</ele>
        <time>2021-02-26T10:25:05Z</time>
      </trkpt>
      <trkpt lat="44.16511" lon="5.00756">
        <ele>262</ele>
        <time>2021-02-26T10:25:24Z</time>
      </trkpt>
      <trkpt lat="44.16525" lon="5.00778">
        <ele>263</ele>
        <time>2021-02-26T10:25:34Z</time>
      </trkpt>
      <trkpt lat="44.1654" lon="5.00814">
        <ele>266</ele>
        <time>2021-02-26T10:25:49Z</time>
      </trkpt>
      <trkpt lat="44.1655" lon="5.00826">
        <ele>265</ele>
        <time>2021-02-26T10:25:56Z</time>
      </trkpt>
      <trkpt lat="44.16569" lon="5.00868">
        <ele>263</ele>
        <time>2021-02-26T10:26:14Z</time>
      </trkpt>
      <trkpt lat="44.16586" lon="5.009">
        <ele>259</ele>
        <time>2021-02-26T10:26:28Z</time>
      </trkpt>
      <trkpt lat="44.16597" lon="5.00939">
        <ele>258</ele>
        <time>2021-02-26T10:26:43Z</time>
      </trkpt>
      <trkpt lat="44.16613" lon="5.00963">
        <ele>258</ele>
        <time>2021-02-26T10:26:55Z</time>
      </trkpt>
      <trkpt lat="44.16647" lon="5.0103">
        <ele>257</ele>
        <time>2021-02-26T10:27:24Z</time>
      </trkpt>
      <trkpt lat="44.16656" lon="5.01056">
        <ele>257</ele>
        <time>2021-02-26T10:27:35Z</time>
      </trkpt>
      <trkpt lat="44.16665" lon="5.01104">
        <ele>256</ele>
        <time>2021-02-26T10:27:52Z</time>
      </trkpt>
      <trkpt lat="44.16664" lon="5.01121">
        <ele>257</ele>
        <time>2021-02-26T10:27:58Z</time>
      </trkpt>
      <trkpt lat="44.16657" lon="5.01148">
        <ele>259</ele>
        <time>2021-02-26T10:28:09Z</time>
      </trkpt>
      <trkpt lat="44.16649" lon="5.01171">
        <ele>260</ele>
        <time>2021-02-26T10:28:18Z</time>
      </trkpt>
      <trkpt lat="44.16637" lon="5.01188">
        <ele>263</ele>
        <time>2021-02-26T10:28:27Z</time>
      </trkpt>
      <trkpt lat="44.16618" lon="5.01245">
        <ele>268</ele>
        <time>2021-02-26T10:28:49Z</time>
      </trkpt>
      <trkpt lat="44.1661" lon="5.01274">
        <ele>269</ele>
        <time>2021-02-26T10:29:00Z</time>
      </trkpt>
      <trkpt lat="44.16601" lon="5.01332">
        <ele>267</ele>
        <time>2021-02-26T10:29:22Z</time>
      </trkpt>
      <trkpt lat="44.16593" lon="5.01369">
        <ele>267</ele>
        <time>2021-02-26T10:29:35Z</time>
      </trkpt>
      <trkpt lat="44.16591" lon="5.01396">
        <ele>267</ele>
        <time>2021-02-26T10:29:45Z</time>
      </trkpt>
      <trkpt lat="44.16592" lon="5.01413">
        <ele>267</ele>
        <time>2021-02-26T10:29:51Z</time>
      </trkpt>
      <trkpt lat="44.166" lon="5.01422">
        <ele>267</ele>
        <time>2021-02-26T10:29:56Z</time>
      </trkpt>
      <trkpt lat="44.16608" lon="5.01425">
        <ele>266</ele>
        <time>2021-02-26T10:30:02Z</time>
      </trkpt>
      <trkpt lat="44.16615" lon="5.01423">
        <ele>267</ele>
        <time>2021-02-26T10:30:04Z</time>
      </trkpt>
      <trkpt lat="44.16618" lon="5.0142">
        <ele>267</ele>
        <time>2021-02-26T10:30:06Z</time>
      </trkpt>
      <trkpt lat="44.16625" lon="5.01406">
        <ele>266</ele>
        <time>2021-02-26T10:30:11Z</time>
      </trkpt>
      <trkpt lat="44.16628" lon="5.0143">
        <ele>268</ele>
        <time>2021-02-26T10:30:20Z</time>
      </trkpt>
      <trkpt lat="44.16643" lon="5.0145">
        <ele>270</ele>
        <time>2021-02-26T10:30:33Z</time>
      </trkpt>
      <trkpt lat="44.16655" lon="5.01468">
        <ele>273</ele>
        <time>2021-02-26T10:30:42Z</time>
      </trkpt>
      <trkpt lat="44.16703" lon="5.01529">
        <ele>283</ele>
        <time>2021-02-26T10:31:14Z</time>
      </trkpt>
      <trkpt lat="44.16728" lon="5.01587">
        <ele>285</ele>
        <time>2021-02-26T10:31:39Z</time>
      </trkpt>
      <trkpt lat="44.16741" lon="5.0161">
        <ele>286</ele>
        <time>2021-02-26T10:31:49Z</time>
      </trkpt>
      <trkpt lat="44.16763" lon="5.01663">
        <ele>290</ele>
        <time>2021-02-26T10:32:11Z</time>
      </trkpt>
      <trkpt lat="44.16788" lon="5.01697">
        <ele>296</ele>
        <time>2021-02-26T10:32:29Z</time>
      </trkpt>
      <trkpt lat="44.16792" lon="5.01716">
        <ele>297</ele>
        <time>2021-02-26T10:32:36Z</time>
      </trkpt>
      <trkpt lat="44.16794" lon="5.01761">
        <ele>297</ele>
        <time>2021-02-26T10:32:52Z</time>
      </trkpt>
      <trkpt lat="44.168" lon="5.01804">
        <ele>302</ele>
        <time>2021-02-26T10:33:08Z</time>
      </trkpt>
      <trkpt lat="44.16807" lon="5.01818">
        <ele>305</ele>
        <time>2021-02-26T10:33:14Z</time>
      </trkpt>
      <trkpt lat="44.1681" lon="5.01832">
        <ele>307</ele>
        <time>2021-02-26T10:33:19Z</time>
      </trkpt>
      <trkpt lat="44.16815" lon="5.01884">
        <ele>311</ele>
        <time>2021-02-26T10:33:38Z</time>
      </trkpt>
      <trkpt lat="44.1682" lon="5.01909">
        <ele>312</ele>
        <time>2021-02-26T10:33:47Z</time>
      </trkpt>
      <trkpt lat="44.16818" lon="5.01926">
        <ele>314</ele>
        <time>2021-02-26T10:33:53Z</time>
      </trkpt>
      <trkpt lat="44.168" lon="5.01976">
        <ele>318</ele>
        <time>2021-02-26T10:34:13Z</time>
      </trkpt>
      <trkpt lat="44.16788" lon="5.02017">
        <ele>317</ele>
        <time>2021-02-26T10:34:29Z</time>
      </trkpt>
      <trkpt lat="44.16782" lon="5.02057">
        <ele>315</ele>
        <time>2021-02-26T10:34:44Z</time>
      </trkpt>
      <trkpt lat="44.16778" lon="5.02108">
        <ele>318</ele>
        <time>2021-02-26T10:35:02Z</time>
      </trkpt>
      <trkpt lat="44.16775" lon="5.02204">
        <ele>324</ele>
        <time>2021-02-26T10:35:37Z</time>
      </trkpt>
      <trkpt lat="44.16765" lon="5.02231">
        <ele>329</ele>
        <time>2021-02-26T10:35:48Z</time>
      </trkpt>
      <trkpt lat="44.16764" lon="5.0225">
        <ele>329</ele>
        <time>2021-02-26T10:35:55Z</time>
      </trkpt>
      <trkpt lat="44.16766" lon="5.02272">
        <ele>329</ele>
        <time>2021-02-26T10:36:02Z</time>
      </trkpt>
      <trkpt lat="44.16764" lon="5.02287">
        <ele>330</ele>
        <time>2021-02-26T10:36:08Z</time>
      </trkpt>
      <trkpt lat="44.16758" lon="5.02302">
        <ele>333</ele>
        <time>2021-02-26T10:36:14Z</time>
      </trkpt>
      <trkpt lat="44.16756" lon="5.0232">
        <ele>336</ele>
        <time>2021-02-26T10:36:21Z</time>
      </trkpt>
      <trkpt lat="44.1676" lon="5.02334">
        <ele>336</ele>
        <time>2021-02-26T10:36:26Z</time>
      </trkpt>
      <trkpt lat="44.16766" lon="5.02344">
        <ele>336</ele>
        <time>2021-02-26T10:36:31Z</time>
      </trkpt>
      <trkpt lat="44.1677" lon="5.02356">
        <ele>337</ele>
        <time>2021-02-26T10:36:36Z</time>
      </trkpt>
      <trkpt lat="44.16776" lon="5.02387">
        <ele>340</ele>
        <time>2021-02-26T10:36:47Z</time>
      </trkpt>
      <trkpt lat="44.16782" lon="5.02432">
        <ele>343</ele>
        <time>2021-02-26T10:37:03Z</time>
      </trkpt>
      <trkpt lat="44.16792" lon="5.02472">
        <ele>345</ele>
        <time>2021-02-26T10:37:19Z</time>
      </trkpt>
      <trkpt lat="44.16795" lon="5.02498">
        <ele>345</ele>
        <time>2021-02-26T10:37:28Z</time>
      </trkpt>
      <trkpt lat="44.16792" lon="5.02527">
        <ele>344</ele>
        <time>2021-02-26T10:37:39Z</time>
      </trkpt>
      <trkpt lat="44.1678" lon="5.02559">
        <ele>346</ele>
        <time>2021-02-26T10:37:52Z</time>
      </trkpt>
      <trkpt lat="44.16769" lon="5.02575">
        <ele>350</ele>
        <time>2021-02-26T10:38:00Z</time>
      </trkpt>
      <trkpt lat="44.16757" lon="5.02581">
        <ele>354</ele>
        <time>2021-02-26T10:38:06Z</time>
      </trkpt>
      <trkpt lat="44.16748" lon="5.02589">
        <ele>358</ele>
        <time>2021-02-26T10:38:11Z</time>
      </trkpt>
      <trkpt lat="44.16743" lon="5.02598">
        <ele>361</ele>
        <time>2021-02-26T10:38:15Z</time>
      </trkpt>
      <trkpt lat="44.16743" lon="5.02618">
        <ele>363</ele>
        <time>2021-02-26T10:38:23Z</time>
      </trkpt>
      <trkpt lat="44.16749" lon="5.02635">
        <ele>365</ele>
        <time>2021-02-26T10:38:29Z</time>
      </trkpt>
      <trkpt lat="44.16762" lon="5.02653">
        <ele>365</ele>
        <time>2021-02-26T10:38:39Z</time>
      </trkpt>
      <trkpt lat="44.16768" lon="5.02666">
        <ele>365</ele>
        <time>2021-02-26T10:38:44Z</time>
      </trkpt>
      <trkpt lat="44.16769" lon="5.02688">
        <ele>366</ele>
        <time>2021-02-26T10:38:52Z</time>
      </trkpt>
      <trkpt lat="44.16767" lon="5.02702">
        <ele>368</ele>
        <time>2021-02-26T10:38:57Z</time>
      </trkpt>
      <trkpt lat="44.16778" lon="5.02742">
        <ele>366</ele>
        <time>2021-02-26T10:39:12Z</time>
      </trkpt>
      <trkpt lat="44.16783" lon="5.02777">
        <ele>369</ele>
        <time>2021-02-26T10:39:25Z</time>
      </trkpt>
      <trkpt lat="44.16791" lon="5.02817">
        <ele>371</ele>
        <time>2021-02-26T10:39:40Z</time>
      </trkpt>
      <trkpt lat="44.16792" lon="5.02863">
        <ele>376</ele>
        <time>2021-02-26T10:39:57Z</time>
      </trkpt>
      <trkpt lat="44.16795" lon="5.02886">
        <ele>379</ele>
        <time>2021-02-26T10:40:05Z</time>
      </trkpt>
      <trkpt lat="44.16811" lon="5.02944">
        <ele>386</ele>
        <time>2021-02-26T10:40:27Z</time>
      </trkpt>
      <trkpt lat="44.16817" lon="5.03006">
        <ele>393</ele>
        <time>2021-02-26T10:40:50Z</time>
      </trkpt>
      <trkpt lat="44.16784" lon="5.0304">
        <ele>403</ele>
        <time>2021-02-26T10:41:10Z</time>
      </trkpt>
      <trkpt lat="44.16779" lon="5.0304">
        <ele>404</ele>
        <time>2021-02-26T10:41:13Z</time>
      </trkpt>
      <trkpt lat="44.1677" lon="5.03036">
        <ele>405</ele>
        <time>2021-02-26T10:41:20Z</time>
      </trkpt>
      <trkpt lat="44.16764" lon="5.03037">
        <ele>407</ele>
        <time>2021-02-26T10:41:22Z</time>
      </trkpt>
      <trkpt lat="44.16766" lon="5.03047">
        <ele>408</ele>
        <time>2021-02-26T10:41:26Z</time>
      </trkpt>
      <trkpt lat="44.1682" lon="5.0312">
        <ele>413</ele>
        <time>2021-02-26T10:42:04Z</time>
      </trkpt>
      <trkpt lat="44.16849" lon="5.03157">
        <ele>418</ele>
        <time>2021-02-26T10:42:23Z</time>
      </trkpt>
      <trkpt lat="44.1688" lon="5.03217">
        <ele>423</ele>
        <time>2021-02-26T10:42:50Z</time>
      </trkpt>
      <trkpt lat="44.16896" lon="5.03254">
        <ele>424</ele>
        <time>2021-02-26T10:43:05Z</time>
      </trkpt>
      <trkpt lat="44.16904" lon="5.03309">
        <ele>428</ele>
        <time>2021-02-26T10:43:25Z</time>
      </trkpt>
      <trkpt lat="44.1691" lon="5.0333">
        <ele>429</ele>
        <time>2021-02-26T10:43:34Z</time>
      </trkpt>
      <trkpt lat="44.16923" lon="5.03356">
        <ele>429</ele>
        <time>2021-02-26T10:43:45Z</time>
      </trkpt>
      <trkpt lat="44.16942" lon="5.03388">
        <ele>431</ele>
        <time>2021-02-26T10:44:00Z</time>
      </trkpt>
      <trkpt lat="44.16956" lon="5.03401">
        <ele>432</ele>
        <time>2021-02-26T10:44:08Z</time>
      </trkpt>
      <trkpt lat="44.16998" lon="5.03433">
        <ele>435</ele>
        <time>2021-02-26T10:44:32Z</time>
      </trkpt>
      <trkpt lat="44.1702" lon="5.03466">
        <ele>442</ele>
        <time>2021-02-26T10:44:48Z</time>
      </trkpt>
      <trkpt lat="44.17039" lon="5.03486">
        <ele>445</ele>
        <time>2021-02-26T10:45:00Z</time>
      </trkpt>
      <trkpt lat="44.1706" lon="5.03494">
        <ele>445</ele>
        <time>2021-02-26T10:45:11Z</time>
      </trkpt>
      <trkpt lat="44.17079" lon="5.03516">
        <ele>452</ele>
        <time>2021-02-26T10:45:23Z</time>
      </trkpt>
      <trkpt lat="44.17113" lon="5.03521">
        <ele>453</ele>
        <time>2021-02-26T10:45:41Z</time>
      </trkpt>
      <trkpt lat="44.17144" lon="5.03538">
        <ele>457</ele>
        <time>2021-02-26T10:45:57Z</time>
      </trkpt>
      <trkpt lat="44.17174" lon="5.03558">
        <ele>460</ele>
        <time>2021-02-26T10:46:14Z</time>
      </trkpt>
      <trkpt lat="44.17188" lon="5.0356">
        <ele>460</ele>
        <time>2021-02-26T10:46:21Z</time>
      </trkpt>
      <trkpt lat="44.17253" lon="5.03632">
        <ele>473</ele>
        <time>2021-02-26T10:47:03Z</time>
      </trkpt>
      <trkpt lat="44.17284" lon="5.03666">
        <ele>474</ele>
        <time>2021-02-26T10:47:22Z</time>
      </trkpt>
      <trkpt lat="44.17307" lon="5.03681">
        <ele>474</ele>
        <time>2021-02-26T10:47:35Z</time>
      </trkpt>
      <trkpt lat="44.17344" lon="5.03693">
        <ele>472</ele>
        <time>2021-02-26T10:47:54Z</time>
      </trkpt>
      <trkpt lat="44.17379" lon="5.03714">
        <ele>474</ele>
        <time>2021-02-26T10:48:13Z</time>
      </trkpt>
      <trkpt lat="44.17397" lon="5.03721">
        <ele>476</ele>
        <time>2021-02-26T10:48:22Z</time>
      </trkpt>
      <trkpt lat="44.17413" lon="5.03721">
        <ele>476</ele>
        <time>2021-02-26T10:48:30Z</time>
      </trkpt>
      <trkpt lat="44.17431" lon="5.03713">
        <ele>473</ele>
        <time>2021-02-26T10:48:40Z</time>
      </trkpt>
      <trkpt lat="44.17445" lon="5.03711">
        <ele>473</ele>
        <time>2021-02-26T10:48:47Z</time>
      </trkpt>
      <trkpt lat="44.17459" lon="5.03719">
        <ele>468</ele>
        <time>2021-02-26T10:48:54Z</time>
      </trkpt>
      <trkpt lat="44.17463" lon="5.03731">
        <ele>467</ele>
        <time>2021-02-26T10:48:59Z</time>
      </trkpt>
      <trkpt lat="44.17467" lon="5.03764">
        <ele>466</ele>
        <time>2021-02-26T10:49:11Z</time>
      </trkpt>
      <trkpt lat="44.1747" lon="5.03785">
        <ele>466</ele>
        <time>2021-02-26T10:49:19Z</time>
      </trkpt>
      <trkpt lat="44.17487" lon="5.03825">
        <ele>468</ele>
        <time>2021-02-26T10:49:36Z</time>
      </trkpt>
      <trkpt lat="44.1751" lon="5.03854">
        <ele>467</ele>
        <time>2021-02-26T10:49:51Z</time>
      </trkpt>
      <trkpt lat="44.17515" lon="5.03868">
        <ele>467</ele>
        <time>2021-02-26T10:49:57Z</time>
      </trkpt>
      <trkpt lat="44.17516" lon="5.03899">
        <ele>467</ele>
        <time>2021-02-26T10:50:08Z</time>
      </trkpt>
      <trkpt lat="44.1753" lon="5.03934">
        <ele>462</ele>
        <time>2021-02-26T10:50:22Z</time>
      </trkpt>
      <trkpt lat="44.17568" lon="5.04012">
        <ele>461</ele>
        <time>2021-02-26T10:50:56Z</time>
      </trkpt>
      <trkpt lat="44.17588" lon="5.0408">
        <ele>466</ele>
        <time>2021-02-26T10:51:22Z</time>
      </trkpt>
      <trkpt lat="44.1762" lon="5.04122">
        <ele>463</ele>
        <time>2021-02-26T10:51:44Z</time>
      </trkpt>
      <trkpt lat="44.17643" lon="5.04144">
        <ele>462</ele>
        <time>2021-02-26T10:51:58Z</time>
      </trkpt>
      <trkpt lat="44.17678" lon="5.04201">
        <ele>466</ele>
        <time>2021-02-26T10:52:25Z</time>
      </trkpt>
      <trkpt lat="44.17723" lon="5.04238">
        <ele>464</ele>
        <time>2021-02-26T10:52:51Z</time>
      </trkpt>
      <trkpt lat="44.17736" lon="5.04258">
        <ele>463</ele>
        <time>2021-02-26T10:53:01Z</time>
      </trkpt>
      <trkpt lat="44.1776" lon="5.04329">
        <ele>468</ele>
        <time>2021-02-26T10:53:29Z</time>
      </trkpt>
      <trkpt lat="44.1777" lon="5.04348">
        <ele>469</ele>
        <time>2021-02-26T10:53:38Z</time>
      </trkpt>
      <trkpt lat="44.17785" lon="5.04396">
        <ele>469</ele>
        <time>2021-02-26T10:53:57Z</time>
      </trkpt>
      <trkpt lat="44.17789" lon="5.04442">
        <ele>466</ele>
        <time>2021-02-26T10:54:13Z</time>
      </trkpt>
      <trkpt lat="44.17795" lon="5.04486">
        <ele>462</ele>
        <time>2021-02-26T10:54:29Z</time>
      </trkpt>
      <trkpt lat="44.17789" lon="5.04531">
        <ele>463</ele>
        <time>2021-02-26T10:54:46Z</time>
      </trkpt>
      <trkpt lat="44.17772" lon="5.04604">
        <ele>474</ele>
        <time>2021-02-26T10:55:13Z</time>
      </trkpt>
      <trkpt lat="44.17766" lon="5.04667">
        <ele>483</ele>
        <time>2021-02-26T10:55:36Z</time>
      </trkpt>
      <trkpt lat="44.17768" lon="5.04698">
        <ele>487</ele>
        <time>2021-02-26T10:55:47Z</time>
      </trkpt>
      <trkpt lat="44.1778" lon="5.04742">
        <ele>484</ele>
        <time>2021-02-26T10:56:04Z</time>
      </trkpt>
      <trkpt lat="44.17782" lon="5.04758">
        <ele>481</ele>
        <time>2021-02-26T10:56:10Z</time>
      </trkpt>
      <trkpt lat="44.17774" lon="5.04782">
        <ele>484</ele>
        <time>2021-02-26T10:56:19Z</time>
      </trkpt>
      <trkpt lat="44.17767" lon="5.04809">
        <ele>486</ele>
        <time>2021-02-26T10:56:30Z</time>
      </trkpt>
      <trkpt lat="44.17767" lon="5.04828">
        <ele>482</ele>
        <time>2021-02-26T10:56:37Z</time>
      </trkpt>
      <trkpt lat="44.1777" lon="5.04847">
        <ele>473</ele>
        <time>2021-02-26T10:56:44Z</time>
      </trkpt>
      <trkpt lat="44.1777" lon="5.04861">
        <ele>468</ele>
        <time>2021-02-26T10:56:49Z</time>
      </trkpt>
      <trkpt lat="44.17763" lon="5.04874">
        <ele>475</ele>
        <time>2021-02-26T10:56:54Z</time>
      </trkpt>
      <trkpt lat="44.17758" lon="5.04889">
        <ele>479</ele>
        <time>2021-02-26T10:57:00Z</time>
      </trkpt>
      <trkpt lat="44.17756" lon="5.04911">
        <ele>479</ele>
        <time>2021-02-26T10:57:08Z</time>
      </trkpt>
      <trkpt lat="44.17738" lon="5.04914">
        <ele>487</ele>
        <time>2021-02-26T10:57:17Z</time>
      </trkpt>
      <trkpt lat="44.17729" lon="5.04917">
        <ele>488</ele>
        <time>2021-02-26T10:57:22Z</time>
      </trkpt>
      <trkpt lat="44.17708" lon="5.04931">
        <ele>484</ele>
        <time>2021-02-26T10:57:34Z</time>
      </trkpt>
      <trkpt lat="44.17696" lon="5.04934">
        <ele>482</ele>
        <time>2021-02-26T10:57:40Z</time>
      </trkpt>
      <trkpt lat="44.17685" lon="5.04934">
        <ele>482</ele>
        <time>2021-02-26T10:57:45Z</time>
      </trkpt>
      <trkpt lat="44.17675" lon="5.04936">
        <ele>481</ele>
        <time>2021-02-26T10:57:50Z</time>
      </trkpt>
      <trkpt lat="44.17669" lon="5.04942">
        <ele>479</ele>
        <time>2021-02-26T10:57:54Z</time>
      </trkpt>
      <trkpt lat="44.17665" lon="5.04951">
        <ele>477</ele>
        <time>2021-02-26T10:57:58Z</time>
      </trkpt>
      <trkpt lat="44.17666" lon="5.04998">
        <ele>467</ele>
        <time>2021-02-26T10:58:15Z</time>
      </trkpt>
      <trkpt lat="44.17663" lon="5.05038">
        <ele>461</ele>
        <time>2021-02-26T10:58:29Z</time>
      </trkpt>
      <trkpt lat="44.17654" lon="5.05073">
        <ele>462</ele>
        <time>2021-02-26T10:58:34Z</time>
      </trkpt>
      <trkpt lat="44.17649" lon="5.05123">
        <ele>468</ele>
        <time>2021-02-26T10:58:38Z</time>
      </trkpt>
      <trkpt lat="44.17637" lon="5.05169">
        <ele>473</ele>
        <time>2021-02-26T18:30:35Z</time>
      </trkpt>
      <trkpt lat="44.17627" lon="5.05189">
        <ele>475</ele>
        <time>2021-02-26T18:30:40Z</time>
      </trkpt>
      <trkpt lat="44.17608" lon="5.05208">
        <ele>475</ele>
        <time>2021-02-26T18:30:45Z</time>
      </trkpt>
      <trkpt lat="44.17551" lon="5.05239">
        <ele>474</ele>
        <time>2021-02-26T18:30:50Z</time>
      </trkpt>
      <trkpt lat="44.17503" lon="5.05267">
        <ele>476</ele>
        <time>2021-02-26T18:30:55Z</time>
      </trkpt>
      <trkpt lat="44.17489" lon="5.05284">
        <ele>477</ele>
        <time>2021-02-26T18:31:00Z</time>
      </trkpt>
      <trkpt lat="44.1746" lon="5.05295">
        <ele>474</ele>
        <time>2021-02-26T18:31:05Z</time>
      </trkpt>
      <trkpt lat="44.17426" lon="5.05355">
        <ele>478</ele>
        <time>2021-02-26T18:31:10Z</time>
      </trkpt>
      <trkpt lat="44.1743" lon="5.05357">
        <ele>478</ele>
        <time>2021-02-26T18:31:15Z</time>
      </trkpt>
      <trkpt lat="44.17456" lon="5.05337">
        <ele>478</ele>
        <time>2021-02-26T18:31:20Z</time>
      </trkpt>
      <trkpt lat="44.17476" lon="5.05328">
        <ele>481</ele>
        <time>2021-02-26T18:31:25Z</time>
      </trkpt>
      <trkpt lat="44.1751" lon="5.05324">
        <ele>487</ele>
        <time>2021-02-26T18:31:30Z</time>
      </trkpt>
      <trkpt lat="44.17527" lon="5.0533">
        <ele>490</ele>
        <time>2021-02-26T18:31:35Z</time>
      </trkpt>
      <trkpt lat="44.17529" lon="5.05339">
        <ele>492</ele>
        <time>2021-02-26T18:31:40Z</time>
      </trkpt>
      <trkpt lat="44.17525" lon="5.05347">
        <ele>493</ele>
        <time>2021-02-26T10:59:14Z</time>
      </trkpt>
      <trkpt lat="44.17507" lon="5.05362">
        <ele>492</ele>
        <time>2021-02-26T18:31:50Z</time>
      </trkpt>
      <trkpt lat="44.17502" lon="5.05372">
        <ele>492</ele>
        <time>2021-02-26T18:31:55Z</time>
      </trkpt>
      <trkpt lat="44.17504" lon="5.05391">
        <ele>495</ele>
        <time>2021-02-26T18:32:00Z</time>
      </trkpt>
      <trkpt lat="44.17513" lon="5.05414">
        <ele>499</ele>
        <time>2021-02-26T18:32:05Z</time>
      </trkpt>
      <trkpt lat="44.17522" lon="5.05423">
        <ele>502</ele>
        <time>2021-02-26T18:32:10Z</time>
      </trkpt>
      <trkpt lat="44.17575" lon="5.05421">
        <ele>508</ele>
        <time>2021-02-26T18:32:15Z</time>
      </trkpt>
      <trkpt lat="44.17658" lon="5.05395">
        <ele>518</ele>
        <time>2021-02-26T18:32:20Z</time>
      </trkpt>
      <trkpt lat="44.177" lon="5.05391">
        <ele>521</ele>
        <time>2021-02-26T18:32:25Z</time>
      </trkpt>
      <trkpt lat="44.17713" lon="5.05391">
        <ele>522</ele>
        <time>2021-02-26T18:32:30Z</time>
      </trkpt>
      <trkpt lat="44.17721" lon="5.05397">
        <ele>523</ele>
        <time>2021-02-26T18:32:35Z</time>
      </trkpt>
      <trkpt lat="44.17758" lon="5.05432">
        <ele>533</ele>
        <time>2021-02-26T18:32:40Z</time>
      </trkpt>
      <trkpt lat="44.17782" lon="5.0545">
        <ele>538</ele>
        <time>2021-02-26T18:32:45Z</time>
      </trkpt>
      <trkpt lat="44.17793" lon="5.05452">
        <ele>539</ele>
        <time>2021-02-26T18:32:50Z</time>
      </trkpt>
      <trkpt lat="44.17816" lon="5.05444">
        <ele>538</ele>
        <time>2021-02-26T18:32:55Z</time>
      </trkpt>
      <trkpt lat="44.1787" lon="5.05451">
        <ele>543</ele>
        <time>2021-02-26T18:33:00Z</time>
      </trkpt>
      <trkpt lat="44.17889" lon="5.05458">
        <ele>544</ele>
        <time>2021-02-26T18:33:05Z</time>
      </trkpt>
      <trkpt lat="44.1791" lon="5.05472">
        <ele>547</ele>
        <time>2021-02-26T18:33:10Z</time>
      </trkpt>
      <trkpt lat="44.17922" lon="5.05475">
        <ele>548</ele>
        <time>2021-02-26T18:33:15Z</time>
      </trkpt>
      <trkpt lat="44.17931" lon="5.05475">
        <ele>548</ele>
        <time>2021-02-26T18:33:20Z</time>
      </trkpt>
      <trkpt lat="44.17943" lon="5.05472">
        <ele>548</ele>
        <time>2021-02-26T18:33:25Z</time>
      </trkpt>
      <trkpt lat="44.17965" lon="5.05456">
        <ele>548</ele>
        <time>2021-02-26T18:33:30Z</time>
      </trkpt>
      <trkpt lat="44.17971" lon="5.05459">
        <ele>549</ele>
        <time>2021-02-26T18:33:35Z</time>
      </trkpt>
      <trkpt lat="44.17971" lon="5.05468">
        <ele>551</ele>
        <time>2021-02-26T18:33:40Z</time>
      </trkpt>
      <trkpt lat="44.17908" lon="5.05519">
        <ele>559</ele>
        <time>2021-02-26T18:33:45Z</time>
      </trkpt>
      <trkpt lat="44.17832" lon="5.05558">
        <ele>567</ele>
        <time>2021-02-26T18:33:50Z</time>
      </trkpt>
      <trkpt lat="44.17806" lon="5.05577">
        <ele>572</ele>
        <time>2021-02-26T18:33:55Z</time>
      </trkpt>
      <trkpt lat="44.17782" lon="5.05607">
        <ele>578</ele>
        <time>2021-02-26T18:34:00Z</time>
      </trkpt>
      <trkpt lat="44.17748" lon="5.0564">
        <ele>581</ele>
        <time>2021-02-26T18:34:05Z</time>
      </trkpt>
      <trkpt lat="44.17742" lon="5.05653">
        <ele>582</ele>
        <time>2021-02-26T18:34:10Z</time>
      </trkpt>
      <trkpt lat="44.1774" lon="5.0566">
        <ele>582</ele>
        <time>2021-02-26T18:34:15Z</time>
      </trkpt>
      <trkpt lat="44.17742" lon="5.05673">
        <ele>583</ele>
        <time>2021-02-26T18:34:20Z</time>
      </trkpt>
      <trkpt lat="44.17744" lon="5.05686">
        <ele>584</ele>
        <time>2021-02-26T18:34:25Z</time>
      </trkpt>
      <trkpt lat="44.17743" lon="5.05714">
        <ele>585</ele>
        <time>2021-02-26T18:34:30Z</time>
      </trkpt>
      <trkpt lat="44.17744" lon="5.05724">
        <ele>585</ele>
        <time>2021-02-26T18:34:35Z</time>
      </trkpt>
      <trkpt lat="44.17745" lon="5.05736">
        <ele>586</ele>
        <time>2021-02-26T18:34:40Z</time>
      </trkpt>
      <trkpt lat="44.17737" lon="5.05761">
        <ele>586</ele>
        <time>2021-02-26T18:34:45Z</time>
      </trkpt>
      <trkpt lat="44.17735" lon="5.05781">
        <ele>586</ele>
        <time>2021-02-26T18:34:50Z</time>
      </trkpt>
      <trkpt lat="44.1773" lon="5.05795">
        <ele>584</ele>
        <time>2021-02-26T18:34:55Z</time>
      </trkpt>
      <trkpt lat="44.17725" lon="5.05816">
        <ele>582</ele>
        <time>2021-02-26T18:35:00Z</time>
      </trkpt>
      <trkpt lat="44.17719" lon="5.05822">
        <ele>580</ele>
        <time>2021-02-26T18:35:05Z</time>
      </trkpt>
      <trkpt lat="44.17713" lon="5.05824">
        <ele>578</ele>
        <time>2021-02-26T18:35:10Z</time>
      </trkpt>
      <trkpt lat="44.17708" lon="5.05828">
        <ele>577</ele>
        <time>2021-02-26T18:35:15Z</time>
      </trkpt>
      <trkpt lat="44.17657" lon="5.05912">
        <ele>572</ele>
        <time>2021-02-26T18:35:20Z</time>
      </trkpt>
      <trkpt lat="44.17655" lon="5.05919">
        <ele>572</ele>
        <time>2021-02-26T18:35:25Z</time>
      </trkpt>
      <trkpt lat="44.17665" lon="5.05953">
        <ele>572</ele>
        <time>2021-02-26T18:35:30Z</time>
      </trkpt>
      <trkpt lat="44.17667" lon="5.05969">
        <ele>572</ele>
        <time>2021-02-26T18:35:35Z</time>
      </trkpt>
      <trkpt lat="44.17665" lon="5.05981">
        <ele>572</ele>
        <time>2021-02-26T18:35:40Z</time>
      </trkpt>
      <trkpt lat="44.17647" lon="5.06018">
        <ele>568</ele>
        <time>2021-02-26T18:35:45Z</time>
      </trkpt>
      <trkpt lat="44.17638" lon="5.06058">
        <ele>564</ele>
        <time>2021-02-26T18:35:50Z</time>
      </trkpt>
      <trkpt lat="44.17631" lon="5.06098">
        <ele>560</ele>
        <time>2021-02-26T18:35:55Z</time>
      </trkpt>
      <trkpt lat="44.17627" lon="5.06137">
        <ele>557</ele>
        <time>2021-02-26T18:36:00Z</time>
      </trkpt>
      <trkpt lat="44.17627" lon="5.06187">
        <ele>553</ele>
        <time>2021-02-26T18:36:05Z</time>
      </trkpt>
      <trkpt lat="44.17626" lon="5.06192">
        <ele>553</ele>
        <time>2021-02-26T18:36:10Z</time>
      </trkpt>
      <trkpt lat="44.17621" lon="5.06192">
        <ele>551</ele>
        <time>2021-02-26T18:36:15Z</time>
      </trkpt>
      <trkpt lat="44.17614" lon="5.06168">
        <ele>550</ele>
        <time>2021-02-26T18:36:20Z</time>
      </trkpt>
      <trkpt lat="44.17601" lon="5.06145">
        <ele>546</ele>
        <time>2021-02-26T18:36:25Z</time>
      </trkpt>
      <trkpt lat="44.17594" lon="5.06139">
        <ele>543</ele>
        <time>2021-02-26T18:36:30Z</time>
      </trkpt>
      <trkpt lat="44.1759" lon="5.06141">
        <ele>542</ele>
        <time>2021-02-26T18:36:35Z</time>
      </trkpt>
      <trkpt lat="44.17584" lon="5.06159">
        <ele>538</ele>
        <time>2021-02-26T18:36:40Z</time>
      </trkpt>
      <trkpt lat="44.17572" lon="5.06173">
        <ele>534</ele>
        <time>2021-02-26T18:36:45Z</time>
      </trkpt>
      <trkpt lat="44.17553" lon="5.06189">
        <ele>529</ele>
        <time>2021-02-26T18:36:50Z</time>
      </trkpt>
      <trkpt lat="44.17531" lon="5.06203">
        <ele>524</ele>
        <time>2021-02-26T18:36:55Z</time>
      </trkpt>
      <trkpt lat="44.17517" lon="5.06217">
        <ele>523</ele>
        <time>2021-02-26T18:37:00Z</time>
      </trkpt>
      <trkpt lat="44.17506" lon="5.06242">
        <ele>520</ele>
        <time>2021-02-26T18:37:05Z</time>
      </trkpt>
      <trkpt lat="44.17497" lon="5.06229">
        <ele>519</ele>
        <time>2021-02-26T18:37:10Z</time>
      </trkpt>
      <trkpt lat="44.17487" lon="5.06198">
        <ele>515</ele>
        <time>2021-02-26T18:37:15Z</time>
      </trkpt>
      <trkpt lat="44.175" lon="5.06136">
        <ele>509</ele>
        <time>2021-02-26T18:37:20Z</time>
      </trkpt>
      <trkpt lat="44.17495" lon="5.06068">
        <ele>512</ele>
        <time>2021-02-26T18:37:25Z</time>
      </trkpt>
      <trkpt lat="44.17447" lon="5.05988">
        <ele>504</ele>
        <time>2021-02-26T18:37:30Z</time>
      </trkpt>
      <trkpt lat="44.17438" lon="5.0598">
        <ele>503</ele>
        <time>2021-02-26T18:37:35Z</time>
      </trkpt>
      <trkpt lat="44.17425" lon="5.0598">
        <ele>501</ele>
        <time>2021-02-26T18:37:40Z</time>
      </trkpt>
      <trkpt lat="44.17395" lon="5.05981">
        <ele>493</ele>
        <time>2021-02-26T18:37:45Z</time>
      </trkpt>
      <trkpt lat="44.1738" lon="5.05975">
        <ele>490</ele>
        <time>2021-02-26T18:37:50Z</time>
      </trkpt>
      <trkpt lat="44.17323" lon="5.05969">
        <ele>480</ele>
        <time>2021-02-26T18:37:55Z</time>
      </trkpt>
      <trkpt lat="44.17323" lon="5.0592">
        <ele>477</ele>
        <time>2021-02-26T18:38:00Z</time>
      </trkpt>
      <trkpt lat="44.17324" lon="5.05906">
        <ele>476</ele>
        <time>2021-02-26T18:38:05Z</time>
      </trkpt>
      <trkpt lat="44.17349" lon="5.05852">
        <ele>477</ele>
        <time>2021-02-26T18:38:10Z</time>
      </trkpt>
      <trkpt lat="44.17368" lon="5.05791">
        <ele>478</ele>
        <time>2021-02-26T18:38:15Z</time>
      </trkpt>
      <trkpt lat="44.17372" lon="5.05761">
        <ele>479</ele>
        <time>2021-02-26T18:38:20Z</time>
      </trkpt>
      <trkpt lat="44.17366" lon="5.05738">
        <ele>477</ele>
        <time>2021-02-26T18:38:25Z</time>
      </trkpt>
      <trkpt lat="44.17361" lon="5.05719">
        <ele>477</ele>
        <time>2021-02-26T18:38:30Z</time>
      </trkpt>
      <trkpt lat="44.17362" lon="5.05695">
        <ele>477</ele>
        <time>2021-02-26T18:38:35Z</time>
      </trkpt>
      <trkpt lat="44.17365" lon="5.05673">
        <ele>477</ele>
        <time>2021-02-26T18:38:40Z</time>
      </trkpt>
      <trkpt lat="44.17375" lon="5.05644">
        <ele>478</ele>
        <time>2021-02-26T18:38:45Z</time>
      </trkpt>
      <trkpt lat="44.1738" lon="5.05613">
        <ele>478</ele>
        <time>2021-02-26T18:38:50Z</time>
      </trkpt>
      <trkpt lat="44.17379" lon="5.0558">
        <ele>480</ele>
        <time>2021-02-26T18:38:55Z</time>
      </trkpt>
      <trkpt lat="44.17375" lon="5.05552">
        <ele>480</ele>
        <time>2021-02-26T18:39:00Z</time>
      </trkpt>
      <trkpt lat="44.17364" lon="5.05516">
        <ele>479</ele>
        <time>2021-02-26T18:39:05Z</time>
      </trkpt>
      <trkpt lat="44.17357" lon="5.055">
        <ele>477</ele>
        <time>2021-02-26T18:39:10Z</time>
      </trkpt>
      <trkpt lat="44.17349" lon="5.05491">
        <ele>476</ele>
        <time>2021-02-26T18:39:15Z</time>
      </trkpt>
      <trkpt lat="44.17334" lon="5.05486">
        <ele>473</ele>
        <time>2021-02-26T18:39:20Z</time>
      </trkpt>
      <trkpt lat="44.17323" lon="5.05479">
        <ele>472</ele>
        <time>2021-02-26T18:39:25Z</time>
      </trkpt>
      <trkpt lat="44.17309" lon="5.05465">
        <ele>470</ele>
        <time>2021-02-26T18:39:30Z</time>
      </trkpt>
      <trkpt lat="44.17286" lon="5.05454">
        <ele>466</ele>
        <time>2021-02-26T18:39:35Z</time>
      </trkpt>
      <trkpt lat="44.17268" lon="5.05434">
        <ele>463</ele>
        <time>2021-02-26T18:39:40Z</time>
      </trkpt>
      <trkpt lat="44.17264" lon="5.05425">
        <ele>462</ele>
        <time>2021-02-26T18:39:45Z</time>
      </trkpt>
      <trkpt lat="44.17266" lon="5.05404">
        <ele>462</ele>
        <time>2021-02-26T18:39:50Z</time>
      </trkpt>
      <trkpt lat="44.17258" lon="5.05379">
        <ele>460</ele>
        <time>2021-02-26T18:39:55Z</time>
      </trkpt>
      <trkpt lat="44.17258" lon="5.05353">
        <ele>459</ele>
        <time>2021-02-26T18:40:00Z</time>
      </trkpt>
      <trkpt lat="44.17255" lon="5.0533">
        <ele>458</ele>
        <time>2021-02-26T18:40:05Z</time>
      </trkpt>
      <trkpt lat="44.1725" lon="5.05286">
        <ele>458</ele>
        <time>2021-02-26T18:40:10Z</time>
      </trkpt>
      <trkpt lat="44.1725" lon="5.05255">
        <ele>457</ele>
        <time>2021-02-26T18:40:15Z</time>
      </trkpt>
      <trkpt lat="44.17255" lon="5.05216">
        <ele>454</ele>
        <time>2021-02-26T18:40:20Z</time>
      </trkpt>
      <trkpt lat="44.17263" lon="5.05172">
        <ele>449</ele>
        <time>2021-02-26T11:02:45Z</time>
      </trkpt>
      <trkpt lat="44.17259" lon="5.05162">
        <ele>448</ele>
        <time>2021-02-26T11:02:48Z</time>
      </trkpt>
      <trkpt lat="44.17203" lon="5.05034">
        <ele>433</ele>
        <time>2021-02-26T11:03:42Z</time>
      </trkpt>
      <trkpt lat="44.1719" lon="5.05001">
        <ele>430</ele>
        <time>2021-02-26T11:03:56Z</time>
      </trkpt>
      <trkpt lat="44.17179" lon="5.04963">
        <ele>428</ele>
        <time>2021-02-26T11:04:10Z</time>
      </trkpt>
      <trkpt lat="44.17175" lon="5.04954">
        <ele>427</ele>
        <time>2021-02-26T11:04:14Z</time>
      </trkpt>
      <trkpt lat="44.17168" lon="5.04946">
        <ele>426</ele>
        <time>2021-02-26T11:04:19Z</time>
      </trkpt>
      <trkpt lat="44.17108" lon="5.04925">
        <ele>423</ele>
        <time>2021-02-26T11:04:50Z</time>
      </trkpt>
      <trkpt lat="44.17005" lon="5.04907">
        <ele>429</ele>
        <time>2021-02-26T11:05:42Z</time>
      </trkpt>
      <trkpt lat="44.16986" lon="5.04893">
        <ele>433</ele>
        <time>2021-02-26T11:05:52Z</time>
      </trkpt>
      <trkpt lat="44.16975" lon="5.04892">
        <ele>433</ele>
        <time>2021-02-26T11:05:58Z</time>
      </trkpt>
      <trkpt lat="44.16953" lon="5.049">
        <ele>431</ele>
        <time>2021-02-26T11:06:09Z</time>
      </trkpt>
      <trkpt lat="44.16946" lon="5.04897">
        <ele>431</ele>
        <time>2021-02-26T11:06:13Z</time>
      </trkpt>
      <trkpt lat="44.16929" lon="5.04877">
        <ele>433</ele>
        <time>2021-02-26T11:06:24Z</time>
      </trkpt>
      <trkpt lat="44.16905" lon="5.04853">
        <ele>432</ele>
        <time>2021-02-26T11:06:39Z</time>
      </trkpt>
      <trkpt lat="44.16894" lon="5.04851">
        <ele>430</ele>
        <time>2021-02-26T11:06:44Z</time>
      </trkpt>
      <trkpt lat="44.16892" lon="5.04846">
        <ele>429</ele>
        <time>2021-02-26T11:06:47Z</time>
      </trkpt>
      <trkpt lat="44.16887" lon="5.04842">
        <ele>427</ele>
        <time>2021-02-26T11:06:49Z</time>
      </trkpt>
      <trkpt lat="44.1683" lon="5.0483">
        <ele>414</ele>
        <time>2021-02-26T11:07:18Z</time>
      </trkpt>
      <trkpt lat="44.168" lon="5.04835">
        <ele>410</ele>
        <time>2021-02-26T11:07:33Z</time>
      </trkpt>
      <trkpt lat="44.1679" lon="5.04833">
        <ele>410</ele>
        <time>2021-02-26T11:07:38Z</time>
      </trkpt>
      <trkpt lat="44.16793" lon="5.04777">
        <ele>400</ele>
        <time>2021-02-26T11:07:59Z</time>
      </trkpt>
      <trkpt lat="44.16784" lon="5.04712">
        <ele>391</ele>
        <time>2021-02-26T11:08:22Z</time>
      </trkpt>
      <trkpt lat="44.16771" lon="5.04668">
        <ele>389</ele>
        <time>2021-02-26T11:08:39Z</time>
      </trkpt>
      <trkpt lat="44.16756" lon="5.04634">
        <ele>385</ele>
        <time>2021-02-26T11:08:54Z</time>
      </trkpt>
      <trkpt lat="44.16743" lon="5.04618">
        <ele>383</ele>
        <time>2021-02-26T11:09:02Z</time>
      </trkpt>
      <trkpt lat="44.16738" lon="5.04623">
        <ele>385</ele>
        <time>2021-02-26T11:09:06Z</time>
      </trkpt>
      <trkpt lat="44.16719" lon="5.04626">
        <ele>387</ele>
        <time>2021-02-26T11:09:15Z</time>
      </trkpt>
      <trkpt lat="44.16628" lon="5.04622">
        <ele>386</ele>
        <time>2021-02-26T11:10:01Z</time>
      </trkpt>
      <trkpt lat="44.16576" lon="5.04607">
        <ele>381</ele>
        <time>2021-02-26T11:10:27Z</time>
      </trkpt>
      <trkpt lat="44.16565" lon="5.04609">
        <ele>381</ele>
        <time>2021-02-26T11:10:33Z</time>
      </trkpt>
      <trkpt lat="44.16553" lon="5.04584">
        <ele>378</ele>
        <time>2021-02-26T11:10:44Z</time>
      </trkpt>
      <trkpt lat="44.16479" lon="5.04511">
        <ele>368</ele>
        <time>2021-02-26T11:11:29Z</time>
      </trkpt>
      <trkpt lat="44.16456" lon="5.0449">
        <ele>365</ele>
        <time>2021-02-26T11:11:43Z</time>
      </trkpt>
      <trkpt lat="44.16447" lon="5.04484">
        <ele>363</ele>
        <time>2021-02-26T11:11:48Z</time>
      </trkpt>
      <trkpt lat="44.16442" lon="5.04484">
        <ele>363</ele>
        <time>2021-02-26T11:11:50Z</time>
      </trkpt>
      <trkpt lat="44.1644" lon="5.04491">
        <ele>363</ele>
        <time>2021-02-26T11:11:53Z</time>
      </trkpt>
      <trkpt lat="44.16441" lon="5.04498">
        <ele>364</ele>
        <time>2021-02-26T11:11:55Z</time>
      </trkpt>
      <trkpt lat="44.16464" lon="5.04523">
        <ele>367</ele>
        <time>2021-02-26T11:12:10Z</time>
      </trkpt>
      <trkpt lat="44.16462" lon="5.04526">
        <ele>367</ele>
        <time>2021-02-26T11:12:12Z</time>
      </trkpt>
      <trkpt lat="44.16444" lon="5.04526">
        <ele>364</ele>
        <time>2021-02-26T11:12:21Z</time>
      </trkpt>
      <trkpt lat="44.16433" lon="5.04521">
        <ele>362</ele>
        <time>2021-02-26T11:12:26Z</time>
      </trkpt>
      <trkpt lat="44.16406" lon="5.04516">
        <ele>356</ele>
        <time>2021-02-26T11:12:40Z</time>
      </trkpt>
      <trkpt lat="44.16392" lon="5.04507">
        <ele>354</ele>
        <time>2021-02-26T11:12:48Z</time>
      </trkpt>
      <trkpt lat="44.16375" lon="5.04499">
        <ele>351</ele>
        <time>2021-02-26T11:12:57Z</time>
      </trkpt>
      <trkpt lat="44.1636" lon="5.04489">
        <ele>349</ele>
        <time>2021-02-26T11:13:05Z</time>
      </trkpt>
      <trkpt lat="44.16335" lon="5.04452">
        <ele>351</ele>
        <time>2021-02-26T11:13:23Z</time>
      </trkpt>
      <trkpt lat="44.16321" lon="5.04438">
        <ele>351</ele>
        <time>2021-02-26T11:13:32Z</time>
      </trkpt>
      <trkpt lat="44.16317" lon="5.04438">
        <ele>349</ele>
        <time>2021-02-26T11:13:34Z</time>
      </trkpt>
      <trkpt lat="44.16309" lon="5.04447">
        <ele>345</ele>
        <time>2021-02-26T11:13:39Z</time>
      </trkpt>
      <trkpt lat="44.16305" lon="5.04447">
        <ele>344</ele>
        <time>2021-02-26T11:13:41Z</time>
      </trkpt>
      <trkpt lat="44.16296" lon="5.04442">
        <ele>342</ele>
        <time>2021-02-26T11:13:46Z</time>
      </trkpt>
      <trkpt lat="44.16276" lon="5.04421">
        <ele>338</ele>
        <time>2021-02-26T11:13:58Z</time>
      </trkpt>
      <trkpt lat="44.16265" lon="5.04398">
        <ele>336</ele>
        <time>2021-02-26T11:14:08Z</time>
      </trkpt>
      <trkpt lat="44.1626" lon="5.04375">
        <ele>337</ele>
        <time>2021-02-26T11:14:17Z</time>
      </trkpt>
      <trkpt lat="44.16249" lon="5.04302">
        <ele>333</ele>
        <time>2021-02-26T11:14:44Z</time>
      </trkpt>
      <trkpt lat="44.16247" lon="5.04299">
        <ele>332</ele>
        <time>2021-02-26T11:14:45Z</time>
      </trkpt>
      <trkpt lat="44.16245" lon="5.04299">
        <ele>331</ele>
        <time>2021-02-26T11:14:46Z</time>
      </trkpt>
      <trkpt lat="44.16243" lon="5.04302">
        <ele>331</ele>
        <time>2021-02-26T11:14:48Z</time>
      </trkpt>
      <trkpt lat="44.16239" lon="5.04318">
        <ele>331</ele>
        <time>2021-02-26T11:14:54Z</time>
      </trkpt>
      <trkpt lat="44.16236" lon="5.04322">
        <ele>329</ele>
        <time>2021-02-26T11:14:56Z</time>
      </trkpt>
      <trkpt lat="44.16232" lon="5.04321">
        <ele>328</ele>
        <time>2021-02-26T11:14:58Z</time>
      </trkpt>
      <trkpt lat="44.16222" lon="5.04274">
        <ele>323</ele>
        <time>2021-02-26T11:15:15Z</time>
      </trkpt>
      <trkpt lat="44.16216" lon="5.04251">
        <ele>319</ele>
        <time>2021-02-26T11:15:24Z</time>
      </trkpt>
      <trkpt lat="44.16204" lon="5.04224">
        <ele>314</ele>
        <time>2021-02-26T11:15:36Z</time>
      </trkpt>
      <trkpt lat="44.16204" lon="5.04214">
        <ele>314</ele>
        <time>2021-02-26T11:15:39Z</time>
      </trkpt>
      <trkpt lat="44.16211" lon="5.04207">
        <ele>314</ele>
        <time>2021-02-26T11:15:44Z</time>
      </trkpt>
      <trkpt lat="44.16217" lon="5.04207">
        <ele>315</ele>
        <time>2021-02-26T11:15:47Z</time>
      </trkpt>
      <trkpt lat="44.16218" lon="5.04198">
        <ele>314</ele>
        <time>2021-02-26T11:15:50Z</time>
      </trkpt>
      <trkpt lat="44.16213" lon="5.04186">
        <ele>312</ele>
        <time>2021-02-26T11:15:55Z</time>
      </trkpt>
      <trkpt lat="44.16203" lon="5.04181">
        <ele>311</ele>
        <time>2021-02-26T11:16:00Z</time>
      </trkpt>
      <trkpt lat="44.16197" lon="5.04182">
        <ele>311</ele>
        <time>2021-02-26T11:16:03Z</time>
      </trkpt>
      <trkpt lat="44.16189" lon="5.04193">
        <ele>310</ele>
        <time>2021-02-26T11:16:09Z</time>
      </trkpt>
      <trkpt lat="44.16187" lon="5.04202">
        <ele>310</ele>
        <time>2021-02-26T11:16:12Z</time>
      </trkpt>
      <trkpt lat="44.16183" lon="5.04241">
        <ele>309</ele>
        <time>2021-02-26T11:16:26Z</time>
      </trkpt>
      <trkpt lat="44.16179" lon="5.04256">
        <ele>307</ele>
        <time>2021-02-26T11:16:32Z</time>
      </trkpt>
      <trkpt lat="44.16177" lon="5.04269">
        <ele>305</ele>
        <time>2021-02-26T11:16:37Z</time>
      </trkpt>
      <trkpt lat="44.1618" lon="5.0428">
        <ele>306</ele>
        <time>2021-02-26T11:16:41Z</time>
      </trkpt>
      <trkpt lat="44.16179" lon="5.04285">
        <ele>305</ele>
        <time>2021-02-26T11:16:43Z</time>
      </trkpt>
      <trkpt lat="44.1617" lon="5.04285">
        <ele>300</ele>
        <time>2021-02-26T11:16:47Z</time>
      </trkpt>
      <trkpt lat="44.16166" lon="5.04279">
        <ele>299</ele>
        <time>2021-02-26T11:16:50Z</time>
      </trkpt>
      <trkpt lat="44.16156" lon="5.04276">
        <ele>294</ele>
        <time>2021-02-26T11:16:55Z</time>
      </trkpt>
      <trkpt lat="44.16153" lon="5.04278">
        <ele>292</ele>
        <time>2021-02-26T11:16:57Z</time>
      </trkpt>
      <trkpt lat="44.16148" lon="5.04289">
        <ele>289</ele>
        <time>2021-02-26T11:17:02Z</time>
      </trkpt>
      <trkpt lat="44.16145" lon="5.04294">
        <ele>288</ele>
        <time>2021-02-26T11:17:04Z</time>
      </trkpt>
      <trkpt lat="44.1614" lon="5.04293">
        <ele>285</ele>
        <time>2021-02-26T11:17:07Z</time>
      </trkpt>
      <trkpt lat="44.16134" lon="5.04271">
        <ele>284</ele>
        <time>2021-02-26T11:17:15Z</time>
      </trkpt>
      <trkpt lat="44.16128" lon="5.04259">
        <ele>282</ele>
        <time>2021-02-26T11:17:20Z</time>
      </trkpt>
      <trkpt lat="44.16122" lon="5.04258">
        <ele>280</ele>
        <time>2021-02-26T11:17:23Z</time>
      </trkpt>
      <trkpt lat="44.16091" lon="5.0427">
        <ele>274</ele>
        <time>2021-02-26T11:17:39Z</time>
      </trkpt>
      <trkpt lat="44.16018" lon="5.0435">
        <ele>270</ele>
        <time>2021-02-26T11:18:26Z</time>
      </trkpt>
      <trkpt lat="44.16007" lon="5.04367">
        <ele>269</ele>
        <time>2021-02-26T11:18:34Z</time>
      </trkpt>
      <trkpt lat="44.15997" lon="5.04384">
        <ele>268</ele>
        <time>2021-02-26T11:18:42Z</time>
      </trkpt>
      <trkpt lat="44.15981" lon="5.04424">
        <ele>268</ele>
        <time>2021-02-26T11:18:58Z</time>
      </trkpt>
      <trkpt lat="44.15967" lon="5.04444">
        <ele>267</ele>
        <time>2021-02-26T11:19:09Z</time>
      </trkpt>
      <trkpt lat="44.15962" lon="5.04438">
        <ele>266</ele>
        <time>2021-02-26T11:19:12Z</time>
      </trkpt>
      <trkpt lat="44.15939" lon="5.04455">
        <ele>265</ele>
        <time>2021-02-26T11:19:25Z</time>
      </trkpt>
      <trkpt lat="44.15934" lon="5.04443">
        <ele>263</ele>
        <time>2021-02-26T11:19:29Z</time>
      </trkpt>
      <trkpt lat="44.15929" lon="5.04431">
        <ele>262</ele>
        <time>2021-02-26T11:19:37Z</time>
      </trkpt>
      <trkpt lat="44.15918" lon="5.04418">
        <ele>260</ele>
        <time>2021-02-26T11:19:51Z</time>
      </trkpt>
      <trkpt lat="44.15904" lon="5.04398">
        <ele>260</ele>
        <time>2021-02-26T11:20:03Z</time>
      </trkpt>
      <trkpt lat="44.15891" lon="5.04378">
        <ele>260</ele>
        <time>2021-02-26T11:20:08Z</time>
      </trkpt>
      <trkpt lat="44.15878" lon="5.04372">
        <ele>260</ele>
        <time>2021-02-26T11:20:11Z</time>
      </trkpt>
      <trkpt lat="44.15872" lon="5.04374">
        <ele>261</ele>
        <time>2021-02-26T11:20:14Z</time>
      </trkpt>
      <trkpt lat="44.1583" lon="5.04415">
        <ele>261</ele>
        <time>2021-02-26T11:20:39Z</time>
      </trkpt>
      <trkpt lat="44.15809" lon="5.04442">
        <ele>260</ele>
        <time>2021-02-26T11:20:54Z</time>
      </trkpt>
      <trkpt lat="44.15772" lon="5.04467">
        <ele>260</ele>
        <time>2021-02-26T11:21:15Z</time>
      </trkpt>
      <trkpt lat="44.15746" lon="5.04481">
        <ele>260</ele>
        <time>2021-02-26T11:21:29Z</time>
      </trkpt>
      <trkpt lat="44.15716" lon="5.04507">
        <ele>257</ele>
        <time>2021-02-26T11:21:47Z</time>
      </trkpt>
      <trkpt lat="44.15706" lon="5.04515">
        <ele>255</ele>
        <time>2021-02-26T11:21:52Z</time>
      </trkpt>
      <trkpt lat="44.15707" lon="5.04521">
        <ele>255</ele>
        <time>2021-02-26T11:21:55Z</time>
      </trkpt>
      <trkpt lat="44.157" lon="5.04522">
        <ele>254</ele>
        <time>2021-02-26T11:21:58Z</time>
      </trkpt>
      <trkpt lat="44.15697" lon="5.04521">
        <ele>254</ele>
        <time>2021-02-26T11:22:00Z</time>
      </trkpt>
      <trkpt lat="44.15693" lon="5.04515">
        <ele>254</ele>
        <time>2021-02-26T11:22:03Z</time>
      </trkpt>
      <trkpt lat="44.15685" lon="5.04517">
        <ele>253</ele>
        <time>2021-02-26T11:22:07Z</time>
      </trkpt>
      <trkpt lat="44.15681" lon="5.04517">
        <ele>253</ele>
        <time>2021-02-26T11:22:09Z</time>
      </trkpt>
      <trkpt lat="44.1567" lon="5.04503">
        <ele>253</ele>
        <time>2021-02-26T11:22:16Z</time>
      </trkpt>
      <trkpt lat="44.15667" lon="5.04496">
        <ele>253</ele>
        <time>2021-02-26T11:22:19Z</time>
      </trkpt>
      <trkpt lat="44.15662" lon="5.0445">
        <ele>257</ele>
        <time>2021-02-26T11:22:36Z</time>
      </trkpt>
      <trkpt lat="44.15657" lon="5.04425">
        <ele>258</ele>
        <time>2021-02-26T11:22:45Z</time>
      </trkpt>
      <trkpt lat="44.15654" lon="5.04389">
        <ele>259</ele>
        <time>2021-02-26T11:22:58Z</time>
      </trkpt>
      <trkpt lat="44.1564" lon="5.04341">
        <ele>261</ele>
        <time>2021-02-26T11:23:17Z</time>
      </trkpt>
      <trkpt lat="44.15635" lon="5.04306">
        <ele>265</ele>
        <time>2021-02-26T11:23:30Z</time>
      </trkpt>
      <trkpt lat="44.15626" lon="5.04281">
        <ele>267</ele>
        <time>2021-02-26T11:23:40Z</time>
      </trkpt>
      <trkpt lat="44.15627" lon="5.04271">
        <ele>268</ele>
        <time>2021-02-26T11:23:43Z</time>
      </trkpt>
      <trkpt lat="44.15633" lon="5.04258">
        <ele>271</ele>
        <time>2021-02-26T11:23:49Z</time>
      </trkpt>
      <trkpt lat="44.15633" lon="5.04247">
        <ele>272</ele>
        <time>2021-02-26T11:23:53Z</time>
      </trkpt>
      <trkpt lat="44.1563" lon="5.04214">
        <ele>274</ele>
        <time>2021-02-26T11:24:05Z</time>
      </trkpt>
      <trkpt lat="44.15623" lon="5.04171">
        <ele>277</ele>
        <time>2021-02-26T11:24:21Z</time>
      </trkpt>
      <trkpt lat="44.15612" lon="5.04145">
        <ele>277</ele>
        <time>2021-02-26T11:24:31Z</time>
      </trkpt>
      <trkpt lat="44.1561" lon="5.04135">
        <ele>278</ele>
        <time>2021-02-26T11:24:35Z</time>
      </trkpt>
      <trkpt lat="44.15599" lon="5.04106">
        <ele>280</ele>
        <time>2021-02-26T11:24:47Z</time>
      </trkpt>
      <trkpt lat="44.1559" lon="5.04076">
        <ele>283</ele>
        <time>2021-02-26T11:24:59Z</time>
      </trkpt>
      <trkpt lat="44.15549" lon="5.03975">
        <ele>293</ele>
        <time>2021-02-26T11:25:40Z</time>
      </trkpt>
      <trkpt lat="44.15547" lon="5.03956">
        <ele>294</ele>
        <time>2021-02-26T11:25:47Z</time>
      </trkpt>
      <trkpt lat="44.15549" lon="5.03934">
        <ele>297</ele>
        <time>2021-02-26T11:25:55Z</time>
      </trkpt>
      <trkpt lat="44.15536" lon="5.03903">
        <ele>298</ele>
        <time>2021-02-26T11:26:08Z</time>
      </trkpt>
      <trkpt lat="44.15534" lon="5.03874">
        <ele>305</ele>
        <time>2021-02-26T11:26:18Z</time>
      </trkpt>
      <trkpt lat="44.15528" lon="5.03853">
        <ele>308</ele>
        <time>2021-02-26T11:26:27Z</time>
      </trkpt>
      <trkpt lat="44.15499" lon="5.03798">
        <ele>311</ele>
        <time>2021-02-26T11:26:51Z</time>
      </trkpt>
      <trkpt lat="44.15472" lon="5.03764">
        <ele>313</ele>
        <time>2021-02-26T11:27:09Z</time>
      </trkpt>
      <trkpt lat="44.1547" lon="5.03749">
        <ele>317</ele>
        <time>2021-02-26T11:27:15Z</time>
      </trkpt>
      <trkpt lat="44.15466" lon="5.03735">
        <ele>320</ele>
        <time>2021-02-26T11:27:20Z</time>
      </trkpt>
      <trkpt lat="44.15448" lon="5.03724">
        <ele>319</ele>
        <time>2021-02-26T11:27:30Z</time>
      </trkpt>
      <trkpt lat="44.15421" lon="5.03701">
        <ele>321</ele>
        <time>2021-02-26T11:27:46Z</time>
      </trkpt>
      <trkpt lat="44.15391" lon="5.03687">
        <ele>322</ele>
        <time>2021-02-26T11:28:02Z</time>
      </trkpt>
      <trkpt lat="44.1538" lon="5.03679">
        <ele>322</ele>
        <time>2021-02-26T11:28:08Z</time>
      </trkpt>
      <trkpt lat="44.15371" lon="5.03664">
        <ele>324</ele>
        <time>2021-02-26T11:28:15Z</time>
      </trkpt>
      <trkpt lat="44.15369" lon="5.03655">
        <ele>326</ele>
        <time>2021-02-26T11:28:18Z</time>
      </trkpt>
      <trkpt lat="44.15363" lon="5.03648">
        <ele>327</ele>
        <time>2021-02-26T11:28:22Z</time>
      </trkpt>
      <trkpt lat="44.15355" lon="5.03647">
        <ele>327</ele>
        <time>2021-02-26T11:28:26Z</time>
      </trkpt>
      <trkpt lat="44.15332" lon="5.03665">
        <ele>326</ele>
        <time>2021-02-26T11:28:39Z</time>
      </trkpt>
      <trkpt lat="44.15332" lon="5.03645">
        <ele>329</ele>
        <time>2021-02-26T11:28:47Z</time>
      </trkpt>
      <trkpt lat="44.15339" lon="5.03619">
        <ele>333</ele>
        <time>2021-02-26T11:28:57Z</time>
      </trkpt>
      <trkpt lat="44.15339" lon="5.03584">
        <ele>339</ele>
        <time>2021-02-26T11:29:09Z</time>
      </trkpt>
      <trkpt lat="44.15343" lon="5.03569">
        <ele>342</ele>
        <time>2021-02-26T11:29:15Z</time>
      </trkpt>
      <trkpt lat="44.15346" lon="5.03549">
        <ele>345</ele>
        <time>2021-02-26T11:29:22Z</time>
      </trkpt>
      <trkpt lat="44.15349" lon="5.03539">
        <ele>346</ele>
        <time>2021-02-26T11:29:26Z</time>
      </trkpt>
      <trkpt lat="44.15357" lon="5.03507">
        <ele>353</ele>
        <time>2021-02-26T11:29:38Z</time>
      </trkpt>
      <trkpt lat="44.15365" lon="5.03488">
        <ele>358</ele>
        <time>2021-02-26T11:29:46Z</time>
      </trkpt>
      <trkpt lat="44.15367" lon="5.03479">
        <ele>361</ele>
        <time>2021-02-26T11:29:50Z</time>
      </trkpt>
      <trkpt lat="44.15367" lon="5.03465">
        <ele>364</ele>
        <time>2021-02-26T11:29:55Z</time>
      </trkpt>
      <trkpt lat="44.1536" lon="5.03442">
        <ele>367</ele>
        <time>2021-02-26T11:30:04Z</time>
      </trkpt>
      <trkpt lat="44.1534" lon="5.03383">
        <ele>371</ele>
        <time>2021-02-26T11:30:27Z</time>
      </trkpt>
      <trkpt lat="44.15304" lon="5.03277">
        <ele>372</ele>
        <time>2021-02-26T11:31:09Z</time>
      </trkpt>
      <trkpt lat="44.15303" lon="5.03268">
        <ele>372</ele>
        <time>2021-02-26T11:31:12Z</time>
      </trkpt>
      <trkpt lat="44.15303" lon="5.0326">
        <ele>372</ele>
        <time>2021-02-26T11:31:15Z</time>
      </trkpt>
      <trkpt lat="44.15305" lon="5.03255">
        <ele>373</ele>
        <time>2021-02-26T11:31:17Z</time>
      </trkpt>
      <trkpt lat="44.15316" lon="5.03244">
        <ele>376</ele>
        <time>2021-02-26T11:31:24Z</time>
      </trkpt>
      <trkpt lat="44.15327" lon="5.03206">
        <ele>382</ele>
        <time>2021-02-26T11:31:39Z</time>
      </trkpt>
      <trkpt lat="44.15333" lon="5.03172">
        <ele>385</ele>
        <time>2021-02-26T11:31:51Z</time>
      </trkpt>
      <trkpt lat="44.15329" lon="5.03151">
        <ele>385</ele>
        <time>2021-02-26T11:31:59Z</time>
      </trkpt>
      <trkpt lat="44.15324" lon="5.03144">
        <ele>386</ele>
        <time>2021-02-26T11:32:03Z</time>
      </trkpt>
      <trkpt lat="44.15315" lon="5.03147">
        <ele>384</ele>
        <time>2021-02-26T11:32:07Z</time>
      </trkpt>
      <trkpt lat="44.15295" lon="5.03168">
        <ele>379</ele>
        <time>2021-02-26T11:32:20Z</time>
      </trkpt>
      <trkpt lat="44.1527" lon="5.03186">
        <ele>376</ele>
        <time>2021-02-26T11:32:34Z</time>
      </trkpt>
      <trkpt lat="44.15262" lon="5.03186">
        <ele>376</ele>
        <time>2021-02-26T11:32:38Z</time>
      </trkpt>
      <trkpt lat="44.15254" lon="5.03177">
        <ele>378</ele>
        <time>2021-02-26T11:32:43Z</time>
      </trkpt>
      <trkpt lat="44.1525" lon="5.03168">
        <ele>381</ele>
        <time>2021-02-26T11:32:47Z</time>
      </trkpt>
      <trkpt lat="44.15248" lon="5.03147">
        <ele>385</ele>
        <time>2021-02-26T11:32:54Z</time>
      </trkpt>
      <trkpt lat="44.15236" lon="5.02963">
        <ele>392</ele>
        <time>2021-02-26T11:34:01Z</time>
      </trkpt>
      <trkpt lat="44.15222" lon="5.02937">
        <ele>387</ele>
        <time>2021-02-26T11:34:12Z</time>
      </trkpt>
      <trkpt lat="44.15217" lon="5.02925">
        <ele>387</ele>
        <time>2021-02-26T11:34:17Z</time>
      </trkpt>
      <trkpt lat="44.15214" lon="5.02905">
        <ele>389</ele>
        <time>2021-02-26T11:34:25Z</time>
      </trkpt>
      <trkpt lat="44.15214" lon="5.02885">
        <ele>392</ele>
        <time>2021-02-26T11:34:28Z</time>
      </trkpt>
      <trkpt lat="44.15215" lon="5.02841">
        <ele>396</ele>
        <time>2021-02-26T11:34:48Z</time>
      </trkpt>
      <trkpt lat="44.15217" lon="5.02786">
        <ele>401</ele>
        <time>2021-02-26T11:35:08Z</time>
      </trkpt>
      <trkpt lat="44.15222" lon="5.02733">
        <ele>405</ele>
        <time>2021-02-26T11:35:27Z</time>
      </trkpt>
      <trkpt lat="44.15221" lon="5.02623">
        <ele>413</ele>
        <time>2021-02-26T11:36:06Z</time>
      </trkpt>
      <trkpt lat="44.15229" lon="5.02547">
        <ele>422</ele>
        <time>2021-02-26T11:36:34Z</time>
      </trkpt>
      <trkpt lat="44.15231" lon="5.02536">
        <ele>423</ele>
        <time>2021-02-26T11:36:38Z</time>
      </trkpt>
      <trkpt lat="44.15237" lon="5.02533">
        <ele>425</ele>
        <time>2021-02-26T11:36:41Z</time>
      </trkpt>
      <trkpt lat="44.15243" lon="5.02533">
        <ele>427</ele>
        <time>2021-02-26T11:36:44Z</time>
      </trkpt>
      <trkpt lat="44.15246" lon="5.02536">
        <ele>427</ele>
        <time>2021-02-26T11:36:46Z</time>
      </trkpt>
      <trkpt lat="44.15255" lon="5.02585">
        <ele>428</ele>
        <time>2021-02-26T11:37:06Z</time>
      </trkpt>
      <trkpt lat="44.15259" lon="5.02585">
        <ele>429</ele>
        <time>2021-02-26T11:37:08Z</time>
      </trkpt>
      <trkpt lat="44.1526" lon="5.02578">
        <ele>430</ele>
        <time>2021-02-26T11:37:10Z</time>
      </trkpt>
      <trkpt lat="44.15254" lon="5.02527">
        <ele>430</ele>
        <time>2021-02-26T11:37:31Z</time>
      </trkpt>
      <trkpt lat="44.15253" lon="5.02507">
        <ele>431</ele>
        <time>2021-02-26T11:37:38Z</time>
      </trkpt>
      <trkpt lat="44.15259" lon="5.02221">
        <ele>448</ele>
        <time>2021-02-26T11:39:23Z</time>
      </trkpt>
      <trkpt lat="44.15254" lon="5.02217">
        <ele>447</ele>
        <time>2021-02-26T11:39:25Z</time>
      </trkpt>
      <trkpt lat="44.15231" lon="5.02212">
        <ele>444</ele>
        <time>2021-02-26T11:39:37Z</time>
      </trkpt>
      <trkpt lat="44.15225" lon="5.0221">
        <ele>444</ele>
        <time>2021-02-26T11:39:41Z</time>
      </trkpt>
      <trkpt lat="44.15221" lon="5.02203">
        <ele>445</ele>
        <time>2021-02-26T11:39:44Z</time>
      </trkpt>
      <trkpt lat="44.15219" lon="5.02192">
        <ele>446</ele>
        <time>2021-02-26T11:39:48Z</time>
      </trkpt>
      <trkpt lat="44.15218" lon="5.02184">
        <ele>447</ele>
        <time>2021-02-26T11:39:51Z</time>
      </trkpt>
      <trkpt lat="44.15223" lon="5.02161">
        <ele>447</ele>
        <time>2021-02-26T11:39:59Z</time>
      </trkpt>
      <trkpt lat="44.15227" lon="5.02147">
        <ele>447</ele>
        <time>2021-02-26T11:40:06Z</time>
      </trkpt>
      <trkpt lat="44.15228" lon="5.02134">
        <ele>447</ele>
        <time>2021-02-26T11:40:11Z</time>
      </trkpt>
      <trkpt lat="44.15223" lon="5.02099">
        <ele>449</ele>
        <time>2021-02-26T11:40:23Z</time>
      </trkpt>
      <trkpt lat="44.15221" lon="5.02037">
        <ele>450</ele>
        <time>2021-02-26T11:40:46Z</time>
      </trkpt>
      <trkpt lat="44.15221" lon="5.02021">
        <ele>449</ele>
        <time>2021-02-26T11:40:52Z</time>
      </trkpt>
      <trkpt lat="44.15221" lon="5.02021">
        <ele>449</ele>
        <time>2021-02-26T11:40:52Z</time>
      </trkpt>
      <trkpt lat="44.1522" lon="5.02012">
        <ele>449</ele>
        <time>2021-02-26T11:40:55Z</time>
      </trkpt>
      <trkpt lat="44.15221" lon="5.02007">
        <ele>448</ele>
        <time>2021-02-26T11:40:57Z</time>
      </trkpt>
      <trkpt lat="44.15223" lon="5.02002">
        <ele>447</ele>
        <time>2021-02-26T11:40:59Z</time>
      </trkpt>
      <trkpt lat="44.15236" lon="5.01997">
        <ele>444</ele>
        <time>2021-02-26T11:41:05Z</time>
      </trkpt>
      <trkpt lat="44.15241" lon="5.01996">
        <ele>443</ele>
        <time>2021-02-26T11:41:15Z</time>
      </trkpt>
      <trkpt lat="44.15242" lon="5.01989">
        <ele>442</ele>
        <time>2021-02-26T11:41:16Z</time>
      </trkpt>
      <trkpt lat="44.15222" lon="5.01988">
        <ele>445</ele>
        <time>2021-02-26T11:41:33Z</time>
      </trkpt>
      <trkpt lat="44.15217" lon="5.01987">
        <ele>447</ele>
        <time>2021-02-26T11:41:36Z</time>
      </trkpt>
      <trkpt lat="44.15209" lon="5.01979">
        <ele>448</ele>
        <time>2021-02-26T11:41:40Z</time>
      </trkpt>
      <trkpt lat="44.1519" lon="5.01916">
        <ele>434</ele>
        <time>2021-02-26T11:42:05Z</time>
      </trkpt>
      <trkpt lat="44.15138" lon="5.01822">
        <ele>429</ele>
        <time>2021-02-26T11:42:48Z</time>
      </trkpt>
      <trkpt lat="44.15129" lon="5.01809">
        <ele>429</ele>
        <time>2021-02-26T11:42:54Z</time>
      </trkpt>
      <trkpt lat="44.15008" lon="5.01684">
        <ele>408</ele>
        <time>2021-02-26T11:44:09Z</time>
      </trkpt>
      <trkpt lat="44.1498" lon="5.0166">
        <ele>403</ele>
        <time>2021-02-26T11:44:26Z</time>
      </trkpt>
      <trkpt lat="44.14968" lon="5.0165">
        <ele>400</ele>
        <time>2021-02-26T11:44:33Z</time>
      </trkpt>
      <trkpt lat="44.14959" lon="5.01646">
        <ele>399</ele>
        <time>2021-02-26T11:44:38Z</time>
      </trkpt>
      <trkpt lat="44.14936" lon="5.01641">
        <ele>400</ele>
        <time>2021-02-26T11:44:49Z</time>
      </trkpt>
      <trkpt lat="44.14912" lon="5.01633">
        <ele>400</ele>
        <time>2021-02-26T11:45:02Z</time>
      </trkpt>
      <trkpt lat="44.149" lon="5.01626">
        <ele>399</ele>
        <time>2021-02-26T11:45:08Z</time>
      </trkpt>
      <trkpt lat="44.14895" lon="5.01619">
        <ele>398</ele>
        <time>2021-02-26T11:45:12Z</time>
      </trkpt>
      <trkpt lat="44.14887" lon="5.01585">
        <ele>391</ele>
        <time>2021-02-26T11:45:25Z</time>
      </trkpt>
      <trkpt lat="44.14874" lon="5.01564">
        <ele>391</ele>
        <time>2021-02-26T11:45:35Z</time>
      </trkpt>
      <trkpt lat="44.14861" lon="5.0155">
        <ele>391</ele>
        <time>2021-02-26T11:45:43Z</time>
      </trkpt>
      <trkpt lat="44.14845" lon="5.0154">
        <ele>390</ele>
        <time>2021-02-26T11:45:51Z</time>
      </trkpt>
      <trkpt lat="44.14826" lon="5.01535">
        <ele>390</ele>
        <time>2021-02-26T11:46:01Z</time>
      </trkpt>
      <trkpt lat="44.14804" lon="5.01536">
        <ele>390</ele>
        <time>2021-02-26T11:46:12Z</time>
      </trkpt>
      <trkpt lat="44.14736" lon="5.0155">
        <ele>381</ele>
        <time>2021-02-26T11:46:47Z</time>
      </trkpt>
      <trkpt lat="44.14727" lon="5.01556">
        <ele>379</ele>
        <time>2021-02-26T11:46:52Z</time>
      </trkpt>
      <trkpt lat="44.14723" lon="5.01565">
        <ele>378</ele>
        <time>2021-02-26T11:46:55Z</time>
      </trkpt>
      <trkpt lat="44.14721" lon="5.01557">
        <ele>377</ele>
        <time>2021-02-26T11:46:57Z</time>
      </trkpt>
      <trkpt lat="44.14721" lon="5.01549">
        <ele>378</ele>
        <time>2021-02-26T11:47:01Z</time>
      </trkpt>
      <trkpt lat="44.14728" lon="5.01542">
        <ele>379</ele>
        <time>2021-02-26T11:47:04Z</time>
      </trkpt>
      <trkpt lat="44.1473" lon="5.01515">
        <ele>378</ele>
        <time>2021-02-26T11:47:14Z</time>
      </trkpt>
      <trkpt lat="44.14734" lon="5.01508">
        <ele>377</ele>
        <time>2021-02-26T11:47:18Z</time>
      </trkpt>
      <trkpt lat="44.14742" lon="5.01501">
        <ele>374</ele>
        <time>2021-02-26T11:47:22Z</time>
      </trkpt>
      <trkpt lat="44.14748" lon="5.01491">
        <ele>371</ele>
        <time>2021-02-26T11:47:27Z</time>
      </trkpt>
      <trkpt lat="44.14755" lon="5.01469">
        <ele>366</ele>
        <time>2021-02-26T11:47:36Z</time>
      </trkpt>
      <trkpt lat="44.14761" lon="5.01443">
        <ele>358</ele>
        <time>2021-02-26T11:47:46Z</time>
      </trkpt>
      <trkpt lat="44.14757" lon="5.01377">
        <ele>344</ele>
        <time>2021-02-26T11:48:09Z</time>
      </trkpt>
      <trkpt lat="44.1475" lon="5.01351">
        <ele>339</ele>
        <time>2021-02-26T11:48:19Z</time>
      </trkpt>
      <trkpt lat="44.14721" lon="5.01298">
        <ele>332</ele>
        <time>2021-02-26T11:48:43Z</time>
      </trkpt>
      <trkpt lat="44.14712" lon="5.01278">
        <ele>329</ele>
        <time>2021-02-26T11:48:51Z</time>
      </trkpt>
      <trkpt lat="44.14708" lon="5.01264">
        <ele>326</ele>
        <time>2021-02-26T11:48:57Z</time>
      </trkpt>
      <trkpt lat="44.14702" lon="5.01252">
        <ele>324</ele>
        <time>2021-02-26T11:49:02Z</time>
      </trkpt>
      <trkpt lat="44.14691" lon="5.01237">
        <ele>322</ele>
        <time>2021-02-26T11:49:10Z</time>
      </trkpt>
      <trkpt lat="44.14676" lon="5.01227">
        <ele>324</ele>
        <time>2021-02-26T11:49:18Z</time>
      </trkpt>
      <trkpt lat="44.14662" lon="5.01204">
        <ele>320</ele>
        <time>2021-02-26T11:49:29Z</time>
      </trkpt>
      <trkpt lat="44.14663" lon="5.01181">
        <ele>313</ele>
        <time>2021-02-26T11:49:37Z</time>
      </trkpt>
      <trkpt lat="44.14658" lon="5.01172">
        <ele>312</ele>
        <time>2021-02-26T11:49:41Z</time>
      </trkpt>
      <trkpt lat="44.14645" lon="5.01162">
        <ele>312</ele>
        <time>2021-02-26T11:49:49Z</time>
      </trkpt>
      <trkpt lat="44.14621" lon="5.01158">
        <ele>314</ele>
        <time>2021-02-26T11:50:01Z</time>
      </trkpt>
      <trkpt lat="44.14612" lon="5.01161">
        <ele>315</ele>
        <time>2021-02-26T11:50:05Z</time>
      </trkpt>
      <trkpt lat="44.14601" lon="5.01152">
        <ele>314</ele>
        <time>2021-02-26T11:50:12Z</time>
      </trkpt>
      <trkpt lat="44.14584" lon="5.01153">
        <ele>317</ele>
        <time>2021-02-26T11:50:20Z</time>
      </trkpt>
      <trkpt lat="44.14574" lon="5.01148">
        <ele>313</ele>
        <time>2021-02-26T11:50:26Z</time>
      </trkpt>
      <trkpt lat="44.14561" lon="5.01148">
        <ele>312</ele>
        <time>2021-02-26T11:50:32Z</time>
      </trkpt>
      <trkpt lat="44.14549" lon="5.01144">
        <ele>309</ele>
        <time>2021-02-26T11:50:38Z</time>
      </trkpt>
      <trkpt lat="44.14514" lon="5.01166">
        <ele>304</ele>
        <time>2021-02-26T11:50:57Z</time>
      </trkpt>
      <trkpt lat="44.14496" lon="5.01169">
        <ele>300</ele>
        <time>2021-02-26T11:51:07Z</time>
      </trkpt>
      <trkpt lat="44.14488" lon="5.01168">
        <ele>301</ele>
        <time>2021-02-26T11:51:11Z</time>
      </trkpt>
      <trkpt lat="44.14471" lon="5.01157">
        <ele>304</ele>
        <time>2021-02-26T11:51:20Z</time>
      </trkpt>
      <trkpt lat="44.14451" lon="5.01147">
        <ele>312</ele>
        <time>2021-02-26T11:51:31Z</time>
      </trkpt>
      <trkpt lat="44.14445" lon="5.0114">
        <ele>314</ele>
        <time>2021-02-26T11:51:34Z</time>
      </trkpt>
      <trkpt lat="44.1443" lon="5.01136">
        <ele>315</ele>
        <time>2021-02-26T11:51:42Z</time>
      </trkpt>
      <trkpt lat="44.14405" lon="5.01139">
        <ele>315</ele>
        <time>2021-02-26T11:51:55Z</time>
      </trkpt>
      <trkpt lat="44.14375" lon="5.01152">
        <ele>308</ele>
        <time>2021-02-26T11:52:10Z</time>
      </trkpt>
      <trkpt lat="44.14356" lon="5.01153">
        <ele>302</ele>
        <time>2021-02-26T11:52:20Z</time>
      </trkpt>
      <trkpt lat="44.14346" lon="5.01142">
        <ele>302</ele>
        <time>2021-02-26T11:56:16Z</time>
      </trkpt>
      <trkpt lat="44.14342" lon="5.01128">
        <ele>302</ele>
        <time>2021-02-26T11:56:30Z</time>
      </trkpt>
      <trkpt lat="44.14345" lon="5.01119">
        <ele>303</ele>
        <time>2021-02-26T19:03:55Z</time>
      </trkpt>
      <trkpt lat="44.14362" lon="5.01095">
        <ele>304</ele>
        <time>2021-02-26T11:56:34Z</time>
      </trkpt>
      <trkpt lat="44.14363" lon="5.01088">
        <ele>303</ele>
        <time>2021-02-26T11:56:45Z</time>
      </trkpt>
      <trkpt lat="44.14368" lon="5.01075">
        <ele>302</ele>
        <time>2021-02-26T11:56:47Z</time>
      </trkpt>
      <trkpt lat="44.14372" lon="5.01051">
        <ele>300</ele>
        <time>2021-02-26T11:57:01Z</time>
      </trkpt>
      <trkpt lat="44.14387" lon="5.01038">
        <ele>301</ele>
        <time>2021-02-26T11:57:10Z</time>
      </trkpt>
      <trkpt lat="44.14399" lon="5.01032">
        <ele>300</ele>
        <time>2021-02-26T11:57:16Z</time>
      </trkpt>
      <trkpt lat="44.14408" lon="5.01019">
        <ele>298</ele>
        <time>2021-02-26T11:57:23Z</time>
      </trkpt>
      <trkpt lat="44.14424" lon="5.01008">
        <ele>296</ele>
        <time>2021-02-26T11:57:32Z</time>
      </trkpt>
      <trkpt lat="44.14428" lon="5.00991">
        <ele>292</ele>
        <time>2021-02-26T11:57:38Z</time>
      </trkpt>
      <trkpt lat="44.1444" lon="5.00975">
        <ele>289</ele>
        <time>2021-02-26T11:57:47Z</time>
      </trkpt>
      <trkpt lat="44.14446" lon="5.00954">
        <ele>285</ele>
        <time>2021-02-26T11:57:55Z</time>
      </trkpt>
      <trkpt lat="44.14476" lon="5.00907">
        <ele>282</ele>
        <time>2021-02-26T11:58:17Z</time>
      </trkpt>
      <trkpt lat="44.14476" lon="5.00896">
        <ele>281</ele>
        <time>2021-02-26T11:58:21Z</time>
      </trkpt>
      <trkpt lat="44.14464" lon="5.00889">
        <ele>278</ele>
        <time>2021-02-26T11:58:28Z</time>
      </trkpt>
      <trkpt lat="44.14454" lon="5.00875">
        <ele>275</ele>
        <time>2021-02-26T11:58:35Z</time>
      </trkpt>
      <trkpt lat="44.14438" lon="5.00866">
        <ele>273</ele>
        <time>2021-02-26T11:58:43Z</time>
      </trkpt>
      <trkpt lat="44.14436" lon="5.00855">
        <ele>272</ele>
        <time>2021-02-26T11:58:47Z</time>
      </trkpt>
      <trkpt lat="44.1443" lon="5.00847">
        <ele>271</ele>
        <time>2021-02-26T11:58:52Z</time>
      </trkpt>
      <trkpt lat="44.14419" lon="5.00826">
        <ele>267</ele>
        <time>2021-02-26T11:59:01Z</time>
      </trkpt>
      <trkpt lat="44.14408" lon="5.00787">
        <ele>261</ele>
        <time>2021-02-26T11:59:16Z</time>
      </trkpt>
      <trkpt lat="44.14405" lon="5.00768">
        <ele>258</ele>
        <time>2021-02-26T11:59:23Z</time>
      </trkpt>
      <trkpt lat="44.14405" lon="5.00755">
        <ele>257</ele>
        <time>2021-02-26T11:59:28Z</time>
      </trkpt>
      <trkpt lat="44.14412" lon="5.0074">
        <ele>259</ele>
        <time>2021-02-26T11:59:34Z</time>
      </trkpt>
      <trkpt lat="44.14417" lon="5.00737">
        <ele>261</ele>
        <time>2021-02-26T11:59:37Z</time>
      </trkpt>
      <trkpt lat="44.14426" lon="5.00725">
        <ele>265</ele>
        <time>2021-02-26T11:59:43Z</time>
      </trkpt>
      <trkpt lat="44.1443" lon="5.00705">
        <ele>263</ele>
        <time>2021-02-26T11:59:51Z</time>
      </trkpt>
      <trkpt lat="44.14442" lon="5.00679">
        <ele>262</ele>
        <time>2021-02-26T12:00:02Z</time>
      </trkpt>
      <trkpt lat="44.14458" lon="5.00652">
        <ele>262</ele>
        <time>2021-02-26T12:00:14Z</time>
      </trkpt>
      <trkpt lat="44.14479" lon="5.00627">
        <ele>262</ele>
        <time>2021-02-26T12:00:28Z</time>
      </trkpt>
      <trkpt lat="44.14495" lon="5.00625">
        <ele>264</ele>
        <time>2021-02-26T12:00:36Z</time>
      </trkpt>
      <trkpt lat="44.14512" lon="5.00607">
        <ele>260</ele>
        <time>2021-02-26T12:00:47Z</time>
      </trkpt>
      <trkpt lat="44.14536" lon="5.00602">
        <ele>263</ele>
        <time>2021-02-26T12:00:59Z</time>
      </trkpt>
      <trkpt lat="44.14549" lon="5.00581">
        <ele>263</ele>
        <time>2021-02-26T12:01:09Z</time>
      </trkpt>
      <trkpt lat="44.14555" lon="5.00554">
        <ele>262</ele>
        <time>2021-02-26T12:01:19Z</time>
      </trkpt>
      <trkpt lat="44.14564" lon="5.00536">
        <ele>262</ele>
        <time>2021-02-26T12:01:27Z</time>
      </trkpt>
      <trkpt lat="44.14578" lon="5.00527">
        <ele>263</ele>
        <time>2021-02-26T12:01:35Z</time>
      </trkpt>
      <trkpt lat="44.14595" lon="5.00524">
        <ele>268</ele>
        <time>2021-02-26T12:01:43Z</time>
      </trkpt>
      <trkpt lat="44.14622" lon="5.00512">
        <ele>274</ele>
        <time>2021-02-26T12:01:57Z</time>
      </trkpt>
      <trkpt lat="44.14631" lon="5.00504">
        <ele>274</ele>
        <time>2021-02-26T12:02:03Z</time>
      </trkpt>
      <trkpt lat="44.14699" lon="5.00468">
        <ele>271</ele>
        <time>2021-02-26T12:02:39Z</time>
      </trkpt>
      <trkpt lat="44.14706" lon="5.00455">
        <ele>268</ele>
        <time>2021-02-26T12:02:45Z</time>
      </trkpt>
      <trkpt lat="44.14705" lon="5.00441">
        <ele>266</ele>
        <time>2021-02-26T12:02:50Z</time>
      </trkpt>
      <trkpt lat="44.14707" lon="5.00425">
        <ele>265</ele>
        <time>2021-02-26T12:02:56Z</time>
      </trkpt>
      <trkpt lat="44.14707" lon="5.00423">
        <ele>265</ele>
        <time>2021-02-26T12:02:57Z</time>
      </trkpt>
      <trkpt lat="44.14708" lon="5.00407">
        <ele>265</ele>
        <time>2021-02-26T12:03:02Z</time>
      </trkpt>
      <trkpt lat="44.14708" lon="5.00393">
        <ele>264</ele>
        <time>2021-02-26T12:03:07Z</time>
      </trkpt>
      <trkpt lat="44.14707" lon="5.00383">
        <ele>263</ele>
        <time>2021-02-26T12:03:11Z</time>
      </trkpt>
      <trkpt lat="44.14704" lon="5.00378">
        <ele>261</ele>
        <time>2021-02-26T12:03:14Z</time>
      </trkpt>
      <trkpt lat="44.14709" lon="5.00375">
        <ele>263</ele>
        <time>2021-02-26T12:03:18Z</time>
      </trkpt>
      <trkpt lat="44.14716" lon="5.0037">
        <ele>265</ele>
        <time>2021-02-26T12:03:22Z</time>
      </trkpt>
      <trkpt lat="44.14753" lon="5.0036">
        <ele>267</ele>
        <time>2021-02-26T12:03:40Z</time>
      </trkpt>
      <trkpt lat="44.14763" lon="5.00352">
        <ele>268</ele>
        <time>2021-02-26T12:03:46Z</time>
      </trkpt>
      <trkpt lat="44.14792" lon="5.00309">
        <ele>270</ele>
        <time>2021-02-26T12:04:07Z</time>
      </trkpt>
      <trkpt lat="44.14808" lon="5.0029">
        <ele>271</ele>
        <time>2021-02-26T12:04:18Z</time>
      </trkpt>
      <trkpt lat="44.14816" lon="5.00285">
        <ele>271</ele>
        <time>2021-02-26T12:04:22Z</time>
      </trkpt>
      <trkpt lat="44.14825" lon="5.00284">
        <ele>272</ele>
        <time>2021-02-26T12:04:27Z</time>
      </trkpt>
      <trkpt lat="44.1483" lon="5.00288">
        <ele>273</ele>
        <time>2021-02-26T12:04:30Z</time>
      </trkpt>
      <trkpt lat="44.14834" lon="5.00295">
        <ele>274</ele>
        <time>2021-02-26T12:04:33Z</time>
      </trkpt>
      <trkpt lat="44.14835" lon="5.00306">
        <ele>276</ele>
        <time>2021-02-26T12:04:37Z</time>
      </trkpt>
      <trkpt lat="44.14839" lon="5.00308">
        <ele>276</ele>
        <time>2021-02-26T12:04:39Z</time>
      </trkpt>
      <trkpt lat="44.14845" lon="5.00309">
        <ele>276</ele>
        <time>2021-02-26T12:04:42Z</time>
      </trkpt>
      <trkpt lat="44.14856" lon="5.00301">
        <ele>275</ele>
        <time>2021-02-26T12:04:48Z</time>
      </trkpt>
      <trkpt lat="44.14893" lon="5.00254">
        <ele>270</ele>
        <time>2021-02-26T12:05:13Z</time>
      </trkpt>
      <trkpt lat="44.149" lon="5.00253">
        <ele>270</ele>
        <time>2021-02-26T12:05:17Z</time>
      </trkpt>
      <trkpt lat="44.14922" lon="5.00264">
        <ele>273</ele>
        <time>2021-02-26T12:05:29Z</time>
      </trkpt>
      <trkpt lat="44.14937" lon="5.00253">
        <ele>273</ele>
        <time>2021-02-26T12:05:37Z</time>
      </trkpt>
      <trkpt lat="44.14953" lon="5.00227">
        <ele>271</ele>
        <time>2021-02-26T12:05:49Z</time>
      </trkpt>
      <trkpt lat="44.14962" lon="5.00221">
        <ele>272</ele>
        <time>2021-02-26T12:05:54Z</time>
      </trkpt>
      <trkpt lat="44.14966" lon="5.00216">
        <ele>273</ele>
        <time>2021-02-26T12:05:57Z</time>
      </trkpt>
      <trkpt lat="44.14964" lon="5.00203">
        <ele>273</ele>
        <time>2021-02-26T12:06:02Z</time>
      </trkpt>
      <trkpt lat="44.14943" lon="5.00167">
        <ele>270</ele>
        <time>2021-02-26T12:06:18Z</time>
      </trkpt>
      <trkpt lat="44.14937" lon="5.00151">
        <ele>268</ele>
        <time>2021-02-26T12:06:25Z</time>
      </trkpt>
      <trkpt lat="44.14937" lon="5.00141">
        <ele>268</ele>
        <time>2021-02-26T12:06:28Z</time>
      </trkpt>
      <trkpt lat="44.14945" lon="5.00122">
        <ele>266</ele>
        <time>2021-02-26T12:06:36Z</time>
      </trkpt>
      <trkpt lat="44.14951" lon="5.00117">
        <ele>265</ele>
        <time>2021-02-26T12:06:40Z</time>
      </trkpt>
      <trkpt lat="44.14958" lon="5.0012">
        <ele>267</ele>
        <time>2021-02-26T12:06:44Z</time>
      </trkpt>
      <trkpt lat="44.14969" lon="5.00117">
        <ele>268</ele>
        <time>2021-02-26T12:06:49Z</time>
      </trkpt>
      <trkpt lat="44.14978" lon="5.00104">
        <ele>264</ele>
        <time>2021-02-26T12:06:56Z</time>
      </trkpt>
      <trkpt lat="44.14989" lon="5.00095">
        <ele>261</ele>
        <time>2021-02-26T12:07:02Z</time>
      </trkpt>
      <trkpt lat="44.15015" lon="5.00076">
        <ele>257</ele>
        <time>2021-02-26T12:07:17Z</time>
      </trkpt>
      <trkpt lat="44.15029" lon="5.00074">
        <ele>258</ele>
        <time>2021-02-26T12:07:24Z</time>
      </trkpt>
      <trkpt lat="44.15034" lon="5.0007">
        <ele>260</ele>
        <time>2021-02-26T12:07:27Z</time>
      </trkpt>
      <trkpt lat="44.15036" lon="5.0006">
        <ele>260</ele>
        <time>2021-02-26T12:07:30Z</time>
      </trkpt>
      <trkpt lat="44.15038" lon="5.00043">
        <ele>260</ele>
        <time>2021-02-26T12:07:37Z</time>
      </trkpt>
      <trkpt lat="44.15047" lon="5.00021">
        <ele>261</ele>
        <time>2021-02-26T12:07:46Z</time>
      </trkpt>
      <trkpt lat="44.15063" lon="4.99991">
        <ele>258</ele>
        <time>2021-02-26T12:07:59Z</time>
      </trkpt>
      <trkpt lat="44.15069" lon="4.99988">
        <ele>259</ele>
        <time>2021-02-26T12:08:02Z</time>
      </trkpt>
      <trkpt lat="44.15085" lon="4.99991">
        <ele>263</ele>
        <time>2021-02-26T12:08:10Z</time>
      </trkpt>
      <trkpt lat="44.15091" lon="4.99986">
        <ele>263</ele>
        <time>2021-02-26T12:08:14Z</time>
      </trkpt>
      <trkpt lat="44.15096" lon="4.99986">
        <ele>263</ele>
        <time>2021-02-26T12:08:16Z</time>
      </trkpt>
      <trkpt lat="44.15103" lon="4.99992">
        <ele>266</ele>
        <time>2021-02-26T12:08:20Z</time>
      </trkpt>
      <trkpt lat="44.15112" lon="5.00006">
        <ele>274</ele>
        <time>2021-02-26T12:08:27Z</time>
      </trkpt>
      <trkpt lat="44.15119" lon="5.0001">
        <ele>275</ele>
        <time>2021-02-26T12:08:31Z</time>
      </trkpt>
      <trkpt lat="44.15123" lon="5.00017">
        <ele>277</ele>
        <time>2021-02-26T12:08:34Z</time>
      </trkpt>
      <trkpt lat="44.15132" lon="5.00026">
        <ele>280</ele>
        <time>2021-02-26T12:08:40Z</time>
      </trkpt>
      <trkpt lat="44.15143" lon="5.00024">
        <ele>281</ele>
        <time>2021-02-26T12:08:45Z</time>
      </trkpt>
      <trkpt lat="44.15171" lon="5.00005">
        <ele>281</ele>
        <time>2021-02-26T12:09:01Z</time>
      </trkpt>
      <trkpt lat="44.15202" lon="4.99964">
        <ele>272</ele>
        <time>2021-02-26T12:09:22Z</time>
      </trkpt>
      <trkpt lat="44.15211" lon="4.99956">
        <ele>271</ele>
        <time>2021-02-26T12:09:28Z</time>
      </trkpt>
      <trkpt lat="44.15271" lon="4.99934">
        <ele>271</ele>
        <time>2021-02-26T12:09:59Z</time>
      </trkpt>
      <trkpt lat="44.1528" lon="4.99937">
        <ele>271</ele>
        <time>2021-02-26T12:10:03Z</time>
      </trkpt>
      <trkpt lat="44.15285" lon="4.99941">
        <ele>272</ele>
        <time>2021-02-26T12:10:06Z</time>
      </trkpt>
      <trkpt lat="44.15285" lon="4.99956">
        <ele>274</ele>
        <time>2021-02-26T12:10:12Z</time>
      </trkpt>
      <trkpt lat="44.15288" lon="4.99966">
        <ele>276</ele>
        <time>2021-02-26T12:10:15Z</time>
      </trkpt>
      <trkpt lat="44.15297" lon="4.9998">
        <ele>278</ele>
        <time>2021-02-26T12:10:22Z</time>
      </trkpt>
      <trkpt lat="44.15299" lon="4.99995">
        <ele>280</ele>
        <time>2021-02-26T12:10:28Z</time>
      </trkpt>
      <trkpt lat="44.15304" lon="5.00013">
        <ele>280</ele>
        <time>2021-02-26T12:10:35Z</time>
      </trkpt>
      <trkpt lat="44.15324" lon="5.00018">
        <ele>279</ele>
        <time>2021-02-26T12:10:45Z</time>
      </trkpt>
      <trkpt lat="44.15369" lon="5.00007">
        <ele>271</ele>
        <time>2021-02-26T12:11:08Z</time>
      </trkpt>
      <trkpt lat="44.15382" lon="5.00012">
        <ele>268</ele>
        <time>2021-02-26T12:11:14Z</time>
      </trkpt>
      <trkpt lat="44.15396" lon="5.00022">
        <ele>266</ele>
        <time>2021-02-26T12:11:22Z</time>
      </trkpt>
      <trkpt lat="44.15407" lon="5.00036">
        <ele>264</ele>
        <time>2021-02-26T12:11:30Z</time>
      </trkpt>
      <trkpt lat="44.15416" lon="5.00065">
        <ele>261</ele>
        <time>2021-02-26T12:11:41Z</time>
      </trkpt>
      <trkpt lat="44.15401" lon="5.00115">
        <ele>261</ele>
        <time>2021-02-26T12:12:01Z</time>
      </trkpt>
      <trkpt lat="44.154" lon="5.00134">
        <ele>260</ele>
        <time>2021-02-26T12:12:07Z</time>
      </trkpt>
      <trkpt lat="44.15405" lon="5.00155">
        <ele>258</ele>
        <time>2021-02-26T12:12:15Z</time>
      </trkpt>
      <trkpt lat="44.15412" lon="5.00171">
        <ele>255</ele>
        <time>2021-02-26T12:12:22Z</time>
      </trkpt>
      <trkpt lat="44.15432" lon="5.00216">
        <ele>246</ele>
        <time>2021-02-26T12:12:41Z</time>
      </trkpt>
      <trkpt lat="44.15438" lon="5.00233">
        <ele>243</ele>
        <time>2021-02-26T12:12:48Z</time>
      </trkpt>
      <trkpt lat="44.1544" lon="5.00253">
        <ele>242</ele>
        <time>2021-02-26T12:12:55Z</time>
      </trkpt>
      <trkpt lat="44.15442" lon="5.00261">
        <ele>242</ele>
        <time>2021-02-26T12:12:58Z</time>
      </trkpt>
      <trkpt lat="44.15447" lon="5.00264">
        <ele>242</ele>
        <time>2021-02-26T12:13:01Z</time>
      </trkpt>
      <trkpt lat="44.15455" lon="5.00245">
        <ele>241</ele>
        <time>2021-02-26T12:13:10Z</time>
      </trkpt>
      <trkpt lat="44.15454" lon="5.00234">
        <ele>241</ele>
        <time>2021-02-26T12:13:13Z</time>
      </trkpt>
      <trkpt lat="44.15455" lon="5.00204">
        <ele>241</ele>
        <time>2021-02-26T12:13:24Z</time>
      </trkpt>
      <trkpt lat="44.15458" lon="5.00174">
        <ele>240</ele>
        <time>2021-02-26T12:13:35Z</time>
      </trkpt>
      <trkpt lat="44.15459" lon="5.00166">
        <ele>240</ele>
        <time>2021-02-26T12:13:38Z</time>
      </trkpt>
      <trkpt lat="44.15482" lon="5.00103">
        <ele>235</ele>
        <time>2021-02-26T12:14:05Z</time>
      </trkpt>
      <trkpt lat="44.15493" lon="5.00077">
        <ele>233</ele>
        <time>2021-02-26T12:14:14Z</time>
      </trkpt>
      <trkpt lat="44.15502" lon="5.00058">
        <ele>230</ele>
        <time>2021-02-26T12:14:22Z</time>
      </trkpt>
      <trkpt lat="44.15507" lon="5.00045">
        <ele>229</ele>
        <time>2021-02-26T12:14:28Z</time>
      </trkpt>
      <trkpt lat="44.15514" lon="5.00036">
        <ele>229</ele>
        <time>2021-02-26T12:14:32Z</time>
      </trkpt>
      <trkpt lat="44.1552" lon="5.00037">
        <ele>230</ele>
        <time>2021-02-26T12:14:35Z</time>
      </trkpt>
      <trkpt lat="44.15548" lon="5.00053">
        <ele>235</ele>
        <time>2021-02-26T12:14:51Z</time>
      </trkpt>
      <trkpt lat="44.15579" lon="5.00062">
        <ele>239</ele>
        <time>2021-02-26T12:15:06Z</time>
      </trkpt>
      <trkpt lat="44.15596" lon="5.00066">
        <ele>241</ele>
        <time>2021-02-26T12:15:15Z</time>
      </trkpt>
      <trkpt lat="44.15625" lon="5.00086">
        <ele>245</ele>
        <time>2021-02-26T12:15:31Z</time>
      </trkpt>
      <trkpt lat="44.15639" lon="5.001">
        <ele>249</ele>
        <time>2021-02-26T12:15:40Z</time>
      </trkpt>
      <trkpt lat="44.15667" lon="5.00135">
        <ele>257</ele>
        <time>2021-02-26T12:15:59Z</time>
      </trkpt>
      <trkpt lat="44.15682" lon="5.00161">
        <ele>266</ele>
        <time>2021-02-26T12:16:11Z</time>
      </trkpt>
      <trkpt lat="44.15694" lon="5.00175">
        <ele>271</ele>
        <time>2021-02-26T12:16:19Z</time>
      </trkpt>
      <trkpt lat="44.15711" lon="5.00172">
        <ele>270</ele>
        <time>2021-02-26T12:16:27Z</time>
      </trkpt>
      <trkpt lat="44.15749" lon="5.00184">
        <ele>272</ele>
        <time>2021-02-26T12:16:47Z</time>
      </trkpt>
      <trkpt lat="44.15763" lon="5.00193">
        <ele>270</ele>
        <time>2021-02-26T12:16:54Z</time>
      </trkpt>
      <trkpt lat="44.1577" lon="5.00203">
        <ele>269</ele>
        <time>2021-02-26T12:16:59Z</time>
      </trkpt>
      <trkpt lat="44.1578" lon="5.00229">
        <ele>271</ele>
        <time>2021-02-26T12:17:10Z</time>
      </trkpt>
      <trkpt lat="44.15792" lon="5.00249">
        <ele>272</ele>
        <time>2021-02-26T12:17:19Z</time>
      </trkpt>
      <trkpt lat="44.15804" lon="5.00255">
        <ele>270</ele>
        <time>2021-02-26T12:17:26Z</time>
      </trkpt>
      <trkpt lat="44.15819" lon="5.00277">
        <ele>275</ele>
        <time>2021-02-26T12:17:37Z</time>
      </trkpt>
      <trkpt lat="44.15827" lon="5.00282">
        <ele>276</ele>
        <time>2021-02-26T12:17:41Z</time>
      </trkpt>
      <trkpt lat="44.15831" lon="5.00277">
        <ele>277</ele>
        <time>2021-02-26T12:17:44Z</time>
      </trkpt>
      <trkpt lat="44.15833" lon="5.00249">
        <ele>275</ele>
        <time>2021-02-26T12:17:54Z</time>
      </trkpt>
      <trkpt lat="44.15846" lon="5.0023">
        <ele>275</ele>
        <time>2021-02-26T12:18:03Z</time>
      </trkpt>
      <trkpt lat="44.15878" lon="5.00214">
        <ele>278</ele>
        <time>2021-02-26T12:18:20Z</time>
      </trkpt>
      <trkpt lat="44.15893" lon="5.00217">
        <ele>280</ele>
        <time>2021-02-26T12:18:28Z</time>
      </trkpt>
      <trkpt lat="44.15921" lon="5.00233">
        <ele>283</ele>
        <time>2021-02-26T12:18:43Z</time>
      </trkpt>
      <trkpt lat="44.15985" lon="5.00236">
        <ele>285</ele>
        <time>2021-02-26T12:19:15Z</time>
      </trkpt>
      <trkpt lat="44.15992" lon="5.00238">
        <ele>286</ele>
        <time>2021-02-26T12:19:19Z</time>
      </trkpt>
      <trkpt lat="44.16001" lon="5.00245">
        <ele>286</ele>
        <time>2021-02-26T19:17:10Z</time>
      </trkpt>
      <trkpt lat="44.16028" lon="5.00311">
        <ele>284</ele>
        <time>2021-02-26T12:19:34Z</time>
      </trkpt>
      <trkpt lat="44.16045" lon="5.00317">
        <ele>281</ele>
        <time>2021-02-26T12:19:47Z</time>
      </trkpt>
      <trkpt lat="44.16061" lon="5.00329">
        <ele>278</ele>
        <time>2021-02-26T12:19:50Z</time>
      </trkpt>
      <trkpt lat="44.16086" lon="5.00373">
        <ele>272</ele>
        <time>2021-02-26T12:19:55Z</time>
      </trkpt>
      <trkpt lat="44.16103" lon="5.00392">
        <ele>270</ele>
        <time>2021-02-26T12:20:09Z</time>
      </trkpt>
      <trkpt lat="44.16141" lon="5.00422">
        <ele>261</ele>
        <time>2021-02-26T19:17:40Z</time>
      </trkpt>
      <trkpt lat="44.16164" lon="5.00432">
        <ele>258</ele>
        <time>2021-02-26T12:20:14Z</time>
      </trkpt>
      <trkpt lat="44.16191" lon="5.00469">
        <ele>254</ele>
        <time>2021-02-26T12:20:17Z</time>
      </trkpt>
      <trkpt lat="44.16206" lon="5.00479">
        <ele>253</ele>
        <time>2021-02-26T12:20:23Z</time>
      </trkpt>
      <trkpt lat="44.16219" lon="5.00481">
        <ele>253</ele>
        <time>2021-02-26T12:20:46Z</time>
      </trkpt>
      <trkpt lat="44.16228" lon="5.00479">
        <ele>254</ele>
        <time>2021-02-26T19:18:05Z</time>
      </trkpt>
      <trkpt lat="44.16244" lon="5.00469">
        <ele>254</ele>
        <time>2021-02-26T19:18:10Z</time>
      </trkpt>
      <trkpt lat="44.16289" lon="5.00428">
        <ele>251</ele>
        <time>2021-02-26T19:18:15Z</time>
      </trkpt>
      <trkpt lat="44.16309" lon="5.00416">
        <ele>249</ele>
        <time>2021-02-26T12:27:22Z</time>
      </trkpt>
    </trkseg>
  </trk>
</gpx>